Time,TemperatureF,DewpointF,PressureIn,WindDirection,WindDirectionDegrees,WindSpeedMPH,WindSpeedGustMPH,Humidity,HourlyPrecipIn,Conditions,Clouds,dailyrainin,SoftwareType,DateUTC
2013-11-21 00:00:00,44.4,44.4,30.30,East,79,0.0,0.0,100,0.00,SCT,,0.00,WeatherDisplay:10.37,2013-11-21 05:00:00,
2013-11-21 00:01:00,44.3,44.3,30.30,East,79,0.0,0.0,100,0.00,SCT,,0.00,WeatherDisplay:10.37,2013-11-21 05:01:00,
2013-11-21 00:06:00,43.9,43.9,30.30,East,79,0.0,0.0,100,0.00,SCT,,0.00,WeatherDisplay:10.37,2013-11-21 05:06:00,
2013-11-21 00:11:00,43.9,43.9,30.30,East,79,0.0,0.0,100,0.00,SCT,,0.00,WeatherDisplay:10.37,2013-11-21 05:11:00,
2013-11-21 00:12:00,43.9,43.9,30.30,East,79,0.0,0.0,100,0.00,SCT,,0.00,WeatherDisplay:10.37,2013-11-21 05:12:00,
2013-11-21 00:16:00,43.7,43.7,30.30,East,79,0.0,0.0,100,0.00,SCT,,0.00,WeatherDisplay:10.37,2013-11-21 05:16:00,
2013-11-21 00:17:00,43.6,43.6,30.30,East,79,0.0,0.0,100,0.00,SCT,,0.00,WeatherDisplay:10.37,2013-11-21 05:17:00,
2013-11-21 00:21:00,43.5,43.5,30.30,East,79,0.0,0.0,100,0.00,SCT,,0.00,WeatherDisplay:10.37,2013-11-21 05:21:00,
2013-11-21 00:22:00,43.5,43.5,30.30,East,79,0.0,0.0,100,0.00,SCT,,0.00,WeatherDisplay:10.37,2013-11-21 05:22:00,
2013-11-21 00:23:00,43.5,43.5,30.30,East,79,0.0,0.0,100,0.00,SCT,,0.00,WeatherDisplay:10.37,2013-11-21 05:23:00,
2013-11-21 00:26:00,43.3,43.3,30.30,East,79,1.6,2.3,100,0.00,SCT,,0.00,WeatherDisplay:10.37,2013-11-21 05:26:00,
2013-11-21 00:27:00,43.3,43.3,30.30,East,79,1.4,2.3,100,0.00,SCT,,0.00,WeatherDisplay:10.37,2013-11-21 05:27:00,
2013-11-21 00:28:00,43.3,43.3,30.30,East,79,1.3,2.3,100,0.00,SCT,,0.00,WeatherDisplay:10.37,2013-11-21 05:28:00,
2013-11-21 00:32:00,43.3,43.3,30.30,East,82,0.1,1.1,100,0.00,SCT,,0.00,WeatherDisplay:10.37,2013-11-21 05:32:00,
2013-11-21 00:33:00,43.3,43.3,30.30,East,92,1.3,3.0,100,0.00,SCT,,0.00,WeatherDisplay:10.37,2013-11-21 05:33:00,
2013-11-21 00:34:00,43.2,43.2,30.30,East,92,2.0,3.5,100,0.00,SCT,,0.00,WeatherDisplay:10.37,2013-11-21 05:34:00,
2013-11-21 00:37:00,42.7,42.7,30.30,East,92,1.9,3.5,100,0.00,SCT,,0.00,WeatherDisplay:10.37,2013-11-21 05:37:00,
2013-11-21 00:38:00,42.6,42.6,30.30,East,92,2.0,3.0,100,0.00,SCT,,0.00,WeatherDisplay:10.37,2013-11-21 05:38:00,
2013-11-21 00:40:00,42.5,42.5,30.30,East,92,1.1,2.3,100,0.00,SCT,,0.00,WeatherDisplay:10.37,2013-11-21 05:40:00,
2013-11-21 00:42:00,42.4,42.4,30.30,East,92,2.0,2.3,100,0.00,SCT,,0.00,WeatherDisplay:10.37,2013-11-21 05:42:00,
2013-11-21 00:43:00,42.4,42.4,30.30,East,92,2.1,3.5,100,0.00,SCT,,0.00,WeatherDisplay:10.37,2013-11-21 05:43:00,
2013-11-21 00:44:00,42.3,42.3,30.29,East,92,1.6,2.3,100,0.00,SCT,,0.00,WeatherDisplay:10.37,2013-11-21 05:44:00,
2013-11-21 00:46:00,42.4,42.4,30.29,East,92,0.0,1.1,100,0.00,SCT,,0.00,WeatherDisplay:10.37,2013-11-21 05:46:00,
2013-11-21 00:47:00,42.4,42.4,30.29,East,92,0.0,0.0,100,0.00,SCT,,0.00,WeatherDisplay:10.37,2013-11-21 05:47:00,
2013-11-21 00:48:00,42.4,42.4,30.29,East,92,0.0,0.0,100,0.00,SCT,,0.00,WeatherDisplay:10.37,2013-11-21 05:48:00,
2013-11-21 00:49:00,42.2,42.2,30.29,East,92,0.0,0.0,100,0.00,SCT,,0.00,WeatherDisplay:10.37,2013-11-21 05:49:00,
2013-11-21 00:52:00,42.0,42.0,30.30,East,92,0.0,0.0,100,0.00,SCT,,0.00,WeatherDisplay:10.37,2013-11-21 05:52:00,
2013-11-21 00:53:00,42.0,42.0,30.30,East,92,1.5,3.5,100,0.00,SCT,,0.00,WeatherDisplay:10.37,2013-11-21 05:53:00,
2013-11-21 00:54:00,41.9,41.9,30.30,East,92,1.6,2.3,100,0.00,SCT,,0.00,WeatherDisplay:10.37,2013-11-21 05:54:00,
2013-11-21 00:55:00,41.9,41.9,30.30,East,92,1.2,2.3,100,0.00,SCT,,0.00,WeatherDisplay:10.37,2013-11-21 05:55:00,
2013-11-21 00:57:00,41.9,41.9,30.30,East,95,0.0,0.0,100,0.00,SCT,,0.00,WeatherDisplay:10.37,2013-11-21 05:57:00,
2013-11-21 00:58:00,41.9,41.9,30.30,East,97,0.0,0.0,100,0.00,SCT,,0.00,WeatherDisplay:10.37,2013-11-21 05:58:00,
2013-11-21 00:59:00,41.8,41.8,30.30,East,97,0.0,0.0,100,0.00,SCT,,0.00,WeatherDisplay:10.37,2013-11-21 05:59:00,
2013-11-21 01:00:00,41.7,41.7,30.30,East,97,0.0,0.0,100,0.00,SCT,,0.00,WeatherDisplay:10.37,2013-11-21 06:00:00,
2013-11-21 01:02:00,41.7,41.7,30.30,East,97,0.0,0.0,100,0.00,SCT,,0.00,WeatherDisplay:10.37,2013-11-21 06:02:00,
2013-11-21 01:03:00,41.8,41.8,30.30,East,97,0.0,0.0,100,0.00,SCT,,0.00,WeatherDisplay:10.37,2013-11-21 06:03:00,
2013-11-21 01:04:00,41.8,41.8,30.30,East,97,0.0,0.0,100,0.00,SCT,,0.00,WeatherDisplay:10.37,2013-11-21 06:04:00,
2013-11-21 01:05:00,41.8,41.8,30.30,East,97,0.0,0.0,100,0.00,SCT,,0.00,WeatherDisplay:10.37,2013-11-21 06:05:00,
2013-11-21 01:07:00,41.9,41.9,30.30,East,97,0.0,0.0,100,0.00,SCT,,0.00,WeatherDisplay:10.37,2013-11-21 06:07:00,
2013-11-21 01:08:00,41.9,41.9,30.30,East,97,0.0,0.0,100,0.00,SCT,,0.00,WeatherDisplay:10.37,2013-11-21 06:08:00,
2013-11-21 01:10:00,41.8,41.8,30.30,East,97,0.0,0.0,100,0.00,SCT,,0.00,WeatherDisplay:10.37,2013-11-21 06:10:00,
2013-11-21 01:11:00,41.8,41.8,30.30,East,97,0.0,0.0,100,0.00,SCT,,0.00,WeatherDisplay:10.37,2013-11-21 06:11:00,
2013-11-21 01:12:00,41.8,41.8,30.30,East,97,0.0,0.0,100,0.00,SCT,,0.00,WeatherDisplay:10.37,2013-11-21 06:12:00,
2013-11-21 01:13:00,41.9,41.9,30.30,East,97,0.0,0.0,100,0.00,SCT,,0.00,WeatherDisplay:10.37,2013-11-21 06:13:00,
2013-11-21 01:15:00,41.9,41.9,30.30,East,97,0.0,0.0,100,0.00,SCT,,0.00,WeatherDisplay:10.37,2013-11-21 06:15:00,
2013-11-21 01:16:00,41.9,41.9,30.30,East,97,0.0,0.0,100,0.00,SCT,,0.00,WeatherDisplay:10.37,2013-11-21 06:16:00,
2013-11-21 01:17:00,41.9,41.9,30.30,East,97,0.0,0.0,100,0.00,SCT,,0.00,WeatherDisplay:10.37,2013-11-21 06:17:00,
2013-11-21 01:18:00,41.9,41.9,30.30,East,97,0.0,0.0,100,0.00,SCT,,0.00,WeatherDisplay:10.37,2013-11-21 06:18:00,
2013-11-21 01:20:00,41.8,41.8,30.30,East,97,0.0,0.0,100,0.00,SCT,,0.00,WeatherDisplay:10.37,2013-11-21 06:20:00,
2013-11-21 01:22:00,41.7,41.7,30.30,East,97,0.0,0.0,100,0.00,SCT,,0.00,WeatherDisplay:10.37,2013-11-21 06:22:00,
2013-11-21 01:23:00,41.8,41.8,30.30,East,97,0.0,0.0,100,0.00,SCT,,0.00,WeatherDisplay:10.37,2013-11-21 06:23:00,
2013-11-21 01:24:00,41.8,41.8,30.30,East,97,0.0,0.0,100,0.00,SCT,,0.00,WeatherDisplay:10.37,2013-11-21 06:24:00,
2013-11-21 01:26:00,41.8,41.8,30.30,East,97,0.0,0.0,100,0.00,SCT,,0.00,WeatherDisplay:10.37,2013-11-21 06:26:00,
2013-11-21 01:27:00,41.8,41.8,30.30,East,97,0.0,0.0,100,0.00,SCT,,0.00,WeatherDisplay:10.37,2013-11-21 06:27:00,
2013-11-21 01:28:00,41.8,41.8,30.30,East,97,0.0,0.0,100,0.00,SCT,,0.00,WeatherDisplay:10.37,2013-11-21 06:28:00,
2013-11-21 01:29:00,41.8,41.8,30.30,East,97,0.0,0.0,100,0.00,SCT,,0.00,WeatherDisplay:10.37,2013-11-21 06:29:00,
2013-11-21 01:31:00,41.8,41.8,30.30,East,97,0.0,0.0,100,0.00,SCT,,0.00,WeatherDisplay:10.37,2013-11-21 06:31:00,
2013-11-21 01:33:00,41.7,41.7,30.30,East,97,0.0,0.0,100,0.00,SCT,,0.00,WeatherDisplay:10.37,2013-11-21 06:33:00,
2013-11-21 01:34:00,41.7,41.7,30.30,East,97,0.0,0.0,100,0.00,SCT,,0.00,WeatherDisplay:10.37,2013-11-21 06:34:00,
2013-11-21 01:37:00,41.6,41.6,30.30,East,97,0.0,0.0,100,0.00,SCT,,0.00,WeatherDisplay:10.37,2013-11-21 06:37:00,
2013-11-21 01:38:00,41.6,41.6,30.30,East,97,0.0,0.0,100,0.00,SCT,,0.00,WeatherDisplay:10.37,2013-11-21 06:38:00,
2013-11-21 01:39:00,41.5,41.5,30.30,East,97,0.0,0.0,100,0.00,SCT,,0.00,WeatherDisplay:10.37,2013-11-21 06:39:00,
2013-11-21 01:42:00,41.4,41.4,30.30,East,97,0.0,0.0,100,0.00,SCT,,0.00,WeatherDisplay:10.37,2013-11-21 06:42:00,
2013-11-21 01:43:00,41.4,41.4,30.30,East,97,0.0,0.0,100,0.00,SCT,,0.00,WeatherDisplay:10.37,2013-11-21 06:43:00,
2013-11-21 01:44:00,41.4,41.4,30.30,East,97,0.0,0.0,100,0.00,SCT,,0.00,WeatherDisplay:10.37,2013-11-21 06:44:00,
2013-11-21 01:45:00,41.3,41.3,30.30,East,97,0.0,0.0,100,0.00,SCT,,0.00,WeatherDisplay:10.37,2013-11-21 06:45:00,
2013-11-21 01:47:00,41.3,41.3,30.30,East,97,0.0,0.0,100,0.00,SCT,,0.00,WeatherDisplay:10.37,2013-11-21 06:47:00,
2013-11-21 01:49:00,41.2,41.2,30.30,East,97,0.0,0.0,100,0.00,SCT,,0.00,WeatherDisplay:10.37,2013-11-21 06:49:00,
2013-11-21 01:50:00,41.2,41.2,30.30,East,97,0.0,0.0,100,0.00,SCT,,0.00,WeatherDisplay:10.37,2013-11-21 06:50:00,
2013-11-21 01:51:00,41.2,41.2,30.31,East,97,0.0,0.0,100,0.00,SCT,,0.00,WeatherDisplay:10.37,2013-11-21 06:51:00,
2013-11-21 01:52:00,41.1,41.1,30.31,East,97,0.0,0.0,100,0.00,SCT,,0.00,WeatherDisplay:10.37,2013-11-21 06:52:00,
2013-11-21 01:54:00,41.0,41.0,30.30,East,97,0.0,0.0,100,0.00,SCT,,0.00,WeatherDisplay:10.37,2013-11-21 06:54:00,
2013-11-21 01:55:00,41.0,41.0,30.31,East,97,0.0,0.0,100,0.00,SCT,,0.00,WeatherDisplay:10.37,2013-11-21 06:55:00,
2013-11-21 01:56:00,41.0,41.0,30.30,East,97,0.0,0.0,100,0.00,SCT,,0.00,WeatherDisplay:10.37,2013-11-21 06:56:00,
2013-11-21 01:58:00,40.9,40.9,30.30,East,97,0.0,0.0,100,0.00,SCT,,0.00,WeatherDisplay:10.37,2013-11-21 06:58:00,
2013-11-21 01:59:00,40.9,40.9,30.31,East,97,0.0,0.0,100,0.00,SCT,,0.00,WeatherDisplay:10.37,2013-11-21 06:59:00,
2013-11-21 02:00:00,40.8,40.8,30.31,East,97,0.0,0.0,100,0.00,SCT,,0.00,WeatherDisplay:10.37,2013-11-21 07:00:00,
2013-11-21 02:01:00,40.7,40.7,30.31,East,97,0.0,0.0,100,0.00,CLR,,0.00,WeatherDisplay:10.37,2013-11-21 07:01:00,
2013-11-21 02:04:00,40.6,40.6,30.31,East,97,0.0,0.0,100,0.00,CLR,,0.00,WeatherDisplay:10.37,2013-11-21 07:04:00,
2013-11-21 02:05:00,40.6,40.6,30.31,East,97,0.0,0.0,100,0.00,CLR,,0.00,WeatherDisplay:10.37,2013-11-21 07:05:00,
2013-11-21 02:06:00,40.6,40.6,30.31,East,97,0.0,0.0,100,0.00,CLR,,0.00,WeatherDisplay:10.37,2013-11-21 07:06:00,
2013-11-21 02:07:00,40.6,40.6,30.31,East,97,0.0,0.0,100,0.00,CLR,,0.00,WeatherDisplay:10.37,2013-11-21 07:07:00,
2013-11-21 02:10:00,40.5,40.5,30.31,East,97,0.0,0.0,100,0.00,CLR,,0.00,WeatherDisplay:10.37,2013-11-21 07:10:00,
2013-11-21 02:11:00,40.5,40.5,30.31,East,97,0.0,0.0,100,0.00,CLR,,0.00,WeatherDisplay:10.37,2013-11-21 07:11:00,
2013-11-21 02:13:00,40.5,40.5,30.31,East,97,0.0,0.0,100,0.00,CLR,,0.00,WeatherDisplay:10.37,2013-11-21 07:13:00,
2013-11-21 02:15:00,40.6,40.6,30.31,East,97,0.0,0.0,100,0.00,CLR,,0.00,WeatherDisplay:10.37,2013-11-21 07:15:00,
2013-11-21 02:16:00,40.5,40.5,30.31,East,97,0.0,0.0,100,0.00,CLR,,0.00,WeatherDisplay:10.37,2013-11-21 07:16:00,
2013-11-21 02:17:00,40.5,40.5,30.31,East,97,0.0,0.0,100,0.00,CLR,,0.00,WeatherDisplay:10.37,2013-11-21 07:17:00,
2013-11-21 02:18:00,40.5,40.5,30.31,East,97,0.0,0.0,100,0.00,CLR,,0.00,WeatherDisplay:10.37,2013-11-21 07:18:00,
2013-11-21 02:20:00,40.3,40.3,30.31,East,97,0.0,0.0,100,0.00,CLR,,0.00,WeatherDisplay:10.37,2013-11-21 07:20:00,
2013-11-21 02:21:00,40.3,40.3,30.31,East,97,0.0,0.0,100,0.00,CLR,,0.00,WeatherDisplay:10.37,2013-11-21 07:21:00,
2013-11-21 02:22:00,40.3,40.3,30.31,East,97,0.0,0.0,100,0.00,CLR,,0.00,WeatherDisplay:10.37,2013-11-21 07:22:00,
2013-11-21 02:24:00,40.3,40.3,30.31,East,97,0.0,0.0,100,0.00,CLR,,0.00,WeatherDisplay:10.37,2013-11-21 07:24:00,
2013-11-21 02:25:00,40.3,40.3,30.31,East,97,0.0,0.0,100,0.00,CLR,,0.00,WeatherDisplay:10.37,2013-11-21 07:25:00,
2013-11-21 02:26:00,40.3,40.3,30.31,East,97,0.0,0.0,100,0.00,CLR,,0.00,WeatherDisplay:10.37,2013-11-21 07:26:00,
2013-11-21 02:27:00,40.3,40.3,30.31,East,97,0.0,0.0,100,0.00,CLR,,0.00,WeatherDisplay:10.37,2013-11-21 07:27:00,
2013-11-21 02:29:00,40.3,40.3,30.31,East,97,0.0,0.0,100,0.00,CLR,,0.00,WeatherDisplay:10.37,2013-11-21 07:29:00,
2013-11-21 02:30:00,40.3,40.3,30.31,East,97,0.0,0.0,100,0.00,CLR,,0.00,WeatherDisplay:10.37,2013-11-21 07:30:00,
2013-11-21 02:31:00,40.3,40.3,30.31,East,97,0.0,0.0,100,0.00,CLR,,0.00,WeatherDisplay:10.37,2013-11-21 07:31:00,
2013-11-21 02:32:00,40.3,40.3,30.31,East,97,0.0,0.0,100,0.00,CLR,,0.00,WeatherDisplay:10.37,2013-11-21 07:32:00,
2013-11-21 02:35:00,40.3,40.3,30.31,East,97,0.0,0.0,100,0.00,CLR,,0.00,WeatherDisplay:10.37,2013-11-21 07:35:00,
2013-11-21 02:36:00,40.3,40.3,30.31,East,97,0.0,0.0,100,0.00,CLR,,0.00,WeatherDisplay:10.37,2013-11-21 07:36:00,
2013-11-21 02:37:00,40.3,40.3,30.31,East,97,0.0,0.0,100,0.00,CLR,,0.00,WeatherDisplay:10.37,2013-11-21 07:37:00,
2013-11-21 02:38:00,40.3,40.3,30.31,East,97,0.0,0.0,100,0.00,CLR,,0.00,WeatherDisplay:10.37,2013-11-21 07:38:00,
2013-11-21 02:40:00,40.2,40.2,30.31,East,97,0.0,0.0,100,0.00,CLR,,0.00,WeatherDisplay:10.37,2013-11-21 07:40:00,
2013-11-21 02:41:00,40.2,40.2,30.31,East,97,0.0,0.0,100,0.00,CLR,,0.00,WeatherDisplay:10.37,2013-11-21 07:41:00,
2013-11-21 02:42:00,40.1,40.1,30.31,East,96,0.0,0.0,100,0.00,CLR,,0.00,WeatherDisplay:10.37,2013-11-21 07:42:00,
2013-11-21 02:43:00,40.1,40.1,30.31,East,97,0.0,0.0,100,0.00,CLR,,0.00,WeatherDisplay:10.37,2013-11-21 07:43:00,
2013-11-21 02:45:00,40.0,40.0,30.31,East,97,0.0,0.0,100,0.00,CLR,,0.00,WeatherDisplay:10.37,2013-11-21 07:45:00,
2013-11-21 02:46:00,40.0,40.0,30.31,East,97,0.0,0.0,100,0.00,CLR,,0.00,WeatherDisplay:10.37,2013-11-21 07:46:00,
2013-11-21 02:47:00,40.0,40.0,30.31,East,97,0.0,0.0,100,0.00,CLR,,0.00,WeatherDisplay:10.37,2013-11-21 07:47:00,
2013-11-21 02:48:00,40.0,40.0,30.31,East,96,0.0,0.0,100,0.00,CLR,,0.00,WeatherDisplay:10.37,2013-11-21 07:48:00,
2013-11-21 02:49:00,40.0,40.0,30.31,East,97,0.0,0.0,100,0.00,CLR,,0.00,WeatherDisplay:10.37,2013-11-21 07:49:00,
2013-11-21 02:50:00,40.0,40.0,30.31,East,96,0.0,0.0,100,0.00,CLR,,0.00,WeatherDisplay:10.37,2013-11-21 07:50:00,
2013-11-21 02:51:00,40.0,40.0,30.31,East,97,0.0,0.0,100,0.00,CLR,,0.00,WeatherDisplay:10.37,2013-11-21 07:51:00,
2013-11-21 02:53:00,40.0,40.0,30.31,East,97,0.0,0.0,100,0.00,CLR,,0.00,WeatherDisplay:10.37,2013-11-21 07:53:00,
2013-11-21 02:55:00,40.0,40.0,30.31,East,97,0.0,0.0,100,0.00,CLR,,0.00,WeatherDisplay:10.37,2013-11-21 07:55:00,
2013-11-21 02:56:00,40.0,40.0,30.31,East,97,0.0,0.0,100,0.00,CLR,,0.00,WeatherDisplay:10.37,2013-11-21 07:56:00,
2013-11-21 02:58:00,40.0,40.0,30.31,East,97,0.0,0.0,100,0.00,CLR,,0.00,WeatherDisplay:10.37,2013-11-21 07:58:00,
2013-11-21 03:00:00,39.9,39.9,30.31,East,97,0.0,0.0,100,0.00,CLR,,0.00,WeatherDisplay:10.37,2013-11-21 08:00:00,
2013-11-21 03:01:00,39.9,39.9,30.31,East,96,0.0,0.0,100,0.00,CLR,,0.00,WeatherDisplay:10.37,2013-11-21 08:01:00,
2013-11-21 03:03:00,39.8,39.8,30.31,East,97,0.0,0.0,100,0.00,CLR,,0.00,WeatherDisplay:10.37,2013-11-21 08:03:00,
2013-11-21 03:05:00,39.8,39.8,30.31,East,96,0.0,0.0,100,0.00,CLR,,0.00,WeatherDisplay:10.37,2013-11-21 08:05:00,
2013-11-21 03:06:00,39.7,39.7,30.31,East,97,0.0,0.0,100,0.00,CLR,,0.00,WeatherDisplay:10.37,2013-11-21 08:06:00,
2013-11-21 03:07:00,39.7,39.7,30.31,East,97,0.0,0.0,100,0.00,CLR,,0.00,WeatherDisplay:10.37,2013-11-21 08:07:00,
2013-11-21 03:08:00,39.7,39.7,30.31,East,96,0.0,0.0,100,0.00,CLR,,0.00,WeatherDisplay:10.37,2013-11-21 08:08:00,
2013-11-21 03:09:00,39.7,39.7,30.32,East,97,0.0,0.0,100,0.00,CLR,,0.00,WeatherDisplay:10.37,2013-11-21 08:09:00,
2013-11-21 03:11:00,39.6,39.6,30.31,East,97,0.0,0.0,100,0.00,CLR,,0.00,WeatherDisplay:10.37,2013-11-21 08:11:00,
2013-11-21 03:12:00,39.6,39.6,30.31,East,96,0.0,0.0,100,0.00,CLR,,0.00,WeatherDisplay:10.37,2013-11-21 08:12:00,
2013-11-21 03:13:00,39.6,39.6,30.31,East,97,0.0,0.0,100,0.00,CLR,,0.00,WeatherDisplay:10.37,2013-11-21 08:13:00,
2013-11-21 03:14:00,39.6,39.6,30.31,East,97,0.0,0.0,100,0.00,CLR,,0.00,WeatherDisplay:10.37,2013-11-21 08:14:00,
2013-11-21 03:16:00,39.7,39.7,30.31,East,97,0.0,0.0,100,0.00,CLR,,0.00,WeatherDisplay:10.37,2013-11-21 08:16:00,
2013-11-21 03:17:00,39.7,39.7,30.31,East,97,0.0,0.0,100,0.00,CLR,,0.00,WeatherDisplay:10.37,2013-11-21 08:17:00,
2013-11-21 03:18:00,39.7,39.7,30.31,East,96,0.0,0.0,100,0.00,CLR,,0.00,WeatherDisplay:10.37,2013-11-21 08:18:00,
2013-11-21 03:19:00,39.7,39.7,30.31,East,97,0.0,0.0,100,0.00,CLR,,0.00,WeatherDisplay:10.37,2013-11-21 08:19:00,
2013-11-21 03:21:00,39.6,39.6,30.31,East,97,0.0,0.0,100,0.00,CLR,,0.00,WeatherDisplay:10.37,2013-11-21 08:21:00,
2013-11-21 03:23:00,39.6,39.6,30.31,East,96,0.0,0.0,100,0.00,CLR,,0.00,WeatherDisplay:10.37,2013-11-21 08:23:00,
2013-11-21 03:24:00,39.6,39.6,30.31,East,97,0.0,0.0,100,0.00,CLR,,0.00,WeatherDisplay:10.37,2013-11-21 08:24:00,
2013-11-21 03:25:00,39.6,39.6,30.32,East,97,0.0,0.0,100,0.00,CLR,,0.00,WeatherDisplay:10.37,2013-11-21 08:25:00,
2013-11-21 03:26:00,39.6,39.6,30.31,East,97,0.0,0.0,100,0.00,CLR,,0.00,WeatherDisplay:10.37,2013-11-21 08:26:00,
2013-11-21 03:27:00,39.5,39.5,30.31,East,97,0.0,0.0,100,0.00,CLR,,0.00,WeatherDisplay:10.37,2013-11-21 08:27:00,
2013-11-21 03:28:00,39.5,39.5,30.31,East,97,0.0,0.0,100,0.00,CLR,,0.00,WeatherDisplay:10.37,2013-11-21 08:28:00,
2013-11-21 03:29:00,39.5,39.5,30.32,East,97,0.0,0.0,100,0.00,CLR,,0.00,WeatherDisplay:10.37,2013-11-21 08:29:00,
2013-11-21 03:31:00,39.5,39.5,30.32,East,96,0.0,0.0,100,0.00,CLR,,0.00,WeatherDisplay:10.37,2013-11-21 08:31:00,
2013-11-21 03:32:00,39.5,39.5,30.32,East,96,0.0,0.0,100,0.00,CLR,,0.00,WeatherDisplay:10.37,2013-11-21 08:32:00,
2013-11-21 03:33:00,39.5,39.5,30.31,East,96,0.0,0.0,100,0.00,CLR,,0.00,WeatherDisplay:10.37,2013-11-21 08:33:00,
2013-11-21 03:34:00,39.5,39.5,30.31,East,96,0.0,0.0,100,0.00,CLR,,0.00,WeatherDisplay:10.37,2013-11-21 08:34:00,
2013-11-21 03:36:00,39.5,39.5,30.31,East,97,0.0,0.0,100,0.00,CLR,,0.00,WeatherDisplay:10.37,2013-11-21 08:36:00,
2013-11-21 03:37:00,39.5,39.5,30.31,East,97,0.0,0.0,100,0.00,CLR,,0.00,WeatherDisplay:10.37,2013-11-21 08:37:00,
2013-11-21 03:39:00,39.4,39.4,30.32,East,97,0.0,0.0,100,0.00,CLR,,0.00,WeatherDisplay:10.37,2013-11-21 08:39:00,
2013-11-21 03:40:00,39.4,39.4,30.32,East,97,0.0,0.0,100,0.00,CLR,,0.00,WeatherDisplay:10.37,2013-11-21 08:40:00,
2013-11-21 03:41:00,39.4,39.4,30.32,East,97,0.0,0.0,100,0.00,CLR,,0.00,WeatherDisplay:10.37,2013-11-21 08:41:00,
2013-11-21 03:43:00,39.3,39.3,30.31,East,97,0.0,0.0,100,0.00,CLR,,0.00,WeatherDisplay:10.37,2013-11-21 08:43:00,
2013-11-21 03:44:00,39.3,39.3,30.32,East,97,0.0,0.0,100,0.00,CLR,,0.00,WeatherDisplay:10.37,2013-11-21 08:44:00,
2013-11-21 03:45:00,39.3,39.3,30.32,East,96,0.0,0.0,100,0.00,CLR,,0.00,WeatherDisplay:10.37,2013-11-21 08:45:00,
2013-11-21 03:46:00,39.3,39.3,30.31,East,97,0.0,0.0,100,0.00,CLR,,0.00,WeatherDisplay:10.37,2013-11-21 08:46:00,
2013-11-21 03:47:00,39.3,39.3,30.31,East,97,0.0,0.0,100,0.00,CLR,,0.00,WeatherDisplay:10.37,2013-11-21 08:47:00,
2013-11-21 03:48:00,39.3,39.3,30.31,East,97,0.0,0.0,100,0.00,CLR,,0.00,WeatherDisplay:10.37,2013-11-21 08:48:00,
2013-11-21 03:49:00,39.3,39.3,30.31,East,96,0.0,0.0,100,0.00,CLR,,0.00,WeatherDisplay:10.37,2013-11-21 08:49:00,
2013-11-21 03:50:00,39.3,39.3,30.31,East,97,0.0,0.0,100,0.00,CLR,,0.00,WeatherDisplay:10.37,2013-11-21 08:50:00,
2013-11-21 03:51:00,39.3,39.3,30.31,East,97,0.0,0.0,100,0.00,CLR,,0.00,WeatherDisplay:10.37,2013-11-21 08:51:00,
2013-11-21 03:52:00,39.3,39.3,30.31,East,96,0.0,0.0,100,0.00,CLR,,0.00,WeatherDisplay:10.37,2013-11-21 08:52:00,
2013-11-21 03:54:00,39.3,39.3,30.31,East,97,0.0,0.0,100,0.00,CLR,,0.00,WeatherDisplay:10.37,2013-11-21 08:54:00,
2013-11-21 03:55:00,39.2,39.2,30.31,East,97,0.0,0.0,100,0.00,CLR,,0.00,WeatherDisplay:10.37,2013-11-21 08:55:00,
2013-11-21 03:56:00,39.2,39.2,30.31,East,97,0.0,0.0,100,0.00,CLR,,0.00,WeatherDisplay:10.37,2013-11-21 08:56:00,
2013-11-21 03:57:00,39.2,39.2,30.31,East,97,0.0,0.0,100,0.00,CLR,,0.00,WeatherDisplay:10.37,2013-11-21 08:57:00,
2013-11-21 03:59:00,39.1,39.1,30.31,East,97,0.0,0.0,100,0.00,CLR,,0.00,WeatherDisplay:10.37,2013-11-21 08:59:00,
2013-11-21 04:01:00,39.0,39.0,30.31,East,97,0.0,0.0,100,0.00,CLR,,0.00,WeatherDisplay:10.37,2013-11-21 09:01:00,
2013-11-21 04:03:00,38.9,38.9,30.32,East,97,0.0,0.0,100,0.00,CLR,,0.00,WeatherDisplay:10.37,2013-11-21 09:03:00,
2013-11-21 04:04:00,38.9,38.9,30.32,East,97,0.0,0.0,100,0.00,CLR,,0.00,WeatherDisplay:10.37,2013-11-21 09:04:00,
2013-11-21 04:06:00,38.9,38.9,30.32,East,96,0.0,0.0,100,0.00,CLR,,0.00,WeatherDisplay:10.37,2013-11-21 09:06:00,
2013-11-21 04:07:00,38.9,38.9,30.32,East,97,0.0,0.0,100,0.00,CLR,,0.00,WeatherDisplay:10.37,2013-11-21 09:07:00,
2013-11-21 04:08:00,38.9,38.9,30.32,East,97,0.0,0.0,100,0.00,CLR,,0.00,WeatherDisplay:10.37,2013-11-21 09:08:00,
2013-11-21 04:09:00,38.8,38.8,30.32,East,97,0.0,0.0,100,0.00,CLR,,0.00,WeatherDisplay:10.37,2013-11-21 09:09:00,
2013-11-21 04:10:00,38.8,38.8,30.32,East,97,0.0,0.0,100,0.00,CLR,,0.00,WeatherDisplay:10.37,2013-11-21 09:10:00,
2013-11-21 04:11:00,38.8,38.8,30.32,East,96,0.0,0.0,100,0.00,CLR,,0.00,WeatherDisplay:10.37,2013-11-21 09:11:00,
2013-11-21 04:12:00,38.7,38.7,30.32,East,97,0.0,0.0,100,0.00,CLR,,0.00,WeatherDisplay:10.37,2013-11-21 09:12:00,
2013-11-21 04:13:00,38.7,38.7,30.32,East,96,0.0,0.0,100,0.00,CLR,,0.00,WeatherDisplay:10.37,2013-11-21 09:13:00,
2013-11-21 04:14:00,38.7,38.7,30.32,East,97,0.0,0.0,100,0.00,CLR,,0.00,WeatherDisplay:10.37,2013-11-21 09:14:00,
2013-11-21 04:15:00,38.6,38.6,30.32,East,97,0.0,0.0,100,0.00,CLR,,0.00,WeatherDisplay:10.37,2013-11-21 09:15:00,
2013-11-21 04:18:00,38.7,38.7,30.32,East,97,0.0,0.0,100,0.00,CLR,,0.00,WeatherDisplay:10.37,2013-11-21 09:18:00,
2013-11-21 04:19:00,38.7,38.7,30.32,East,97,0.0,0.0,100,0.00,CLR,,0.00,WeatherDisplay:10.37,2013-11-21 09:19:00,
2013-11-21 04:20:00,38.7,38.7,30.32,East,97,0.0,0.0,100,0.00,CLR,,0.00,WeatherDisplay:10.37,2013-11-21 09:20:00,
2013-11-21 04:24:00,38.6,38.6,30.32,East,97,0.0,0.0,100,0.00,CLR,,0.00,WeatherDisplay:10.37,2013-11-21 09:24:00,
2013-11-21 04:25:00,38.7,38.7,30.33,East,96,0.0,0.0,100,0.00,CLR,,0.00,WeatherDisplay:10.37,2013-11-21 09:25:00,
2013-11-21 04:29:00,38.7,38.7,30.33,East,96,0.0,0.0,100,0.00,CLR,,0.00,WeatherDisplay:10.37,2013-11-21 09:29:00,
2013-11-21 04:30:00,38.7,38.7,30.33,East,97,0.0,0.0,100,0.00,CLR,,0.00,WeatherDisplay:10.37,2013-11-21 09:30:00,
2013-11-21 04:31:00,38.7,38.7,30.33,East,97,0.0,0.0,100,0.00,CLR,,0.00,WeatherDisplay:10.37,2013-11-21 09:31:00,
2013-11-21 04:34:00,38.7,38.7,30.33,East,96,0.0,0.0,100,0.00,CLR,,0.00,WeatherDisplay:10.37,2013-11-21 09:34:00,
2013-11-21 04:35:00,38.7,38.7,30.33,East,97,0.0,0.0,100,0.00,CLR,,0.00,WeatherDisplay:10.37,2013-11-21 09:35:00,
2013-11-21 04:36:00,38.7,38.7,30.33,East,96,0.0,0.0,100,0.00,CLR,,0.00,WeatherDisplay:10.37,2013-11-21 09:36:00,
2013-11-21 04:39:00,38.8,38.8,30.33,East,96,0.0,0.0,100,0.00,CLR,,0.00,WeatherDisplay:10.37,2013-11-21 09:39:00,
2013-11-21 04:40:00,38.8,38.8,30.33,East,96,0.0,0.0,100,0.00,CLR,,0.00,WeatherDisplay:10.37,2013-11-21 09:40:00,
2013-11-21 04:41:00,38.8,38.8,30.33,East,97,0.0,0.0,100,0.00,CLR,,0.00,WeatherDisplay:10.37,2013-11-21 09:41:00,
2013-11-21 04:44:00,38.9,38.9,30.33,East,97,0.0,0.0,100,0.00,CLR,,0.00,WeatherDisplay:10.37,2013-11-21 09:44:00,
2013-11-21 04:45:00,38.9,38.9,30.33,East,96,0.0,0.0,100,0.00,CLR,,0.00,WeatherDisplay:10.37,2013-11-21 09:45:00,
2013-11-21 04:46:00,39.0,39.0,30.33,East,97,0.0,0.0,100,0.00,CLR,,0.00,WeatherDisplay:10.37,2013-11-21 09:46:00,
2013-11-21 04:50:00,39.1,39.1,30.33,East,96,0.0,0.0,100,0.00,CLR,,0.00,WeatherDisplay:10.37,2013-11-21 09:50:00,
2013-11-21 04:52:00,39.2,39.2,30.33,East,97,0.0,0.0,100,0.00,CLR,,0.00,WeatherDisplay:10.37,2013-11-21 09:52:00,
2013-11-21 04:55:00,39.3,39.3,30.33,East,96,0.0,0.0,100,0.00,CLR,,0.00,WeatherDisplay:10.37,2013-11-21 09:55:00,
2013-11-21 04:56:00,39.4,39.4,30.33,East,97,0.0,0.0,100,0.00,CLR,,0.00,WeatherDisplay:10.37,2013-11-21 09:56:00,
2013-11-21 04:57:00,39.4,39.4,30.33,East,97,0.0,0.0,100,0.00,CLR,,0.00,WeatherDisplay:10.37,2013-11-21 09:57:00,
2013-11-21 04:58:00,39.5,39.5,30.33,East,97,0.0,0.0,100,0.00,CLR,,0.00,WeatherDisplay:10.37,2013-11-21 09:58:00,
2013-11-21 05:00:00,39.5,39.5,30.33,East,97,0.0,0.0,100,0.00,CLR,,0.00,WeatherDisplay:10.37,2013-11-21 10:00:00,
2013-11-21 05:01:00,39.6,39.6,30.33,East,97,0.0,0.0,100,0.00,BKN,,0.00,WeatherDisplay:10.37,2013-11-21 10:01:00,
2013-11-21 05:02:00,39.6,39.6,30.33,East,96,0.0,0.0,100,0.00,BKN,,0.00,WeatherDisplay:10.37,2013-11-21 10:02:00,
2013-11-21 05:03:00,39.6,39.6,30.33,East,97,0.0,0.0,100,0.00,BKN,,0.00,WeatherDisplay:10.37,2013-11-21 10:03:00,
2013-11-21 05:05:00,39.6,39.6,30.33,East,97,0.0,0.0,100,0.00,BKN,,0.00,WeatherDisplay:10.37,2013-11-21 10:05:00,
2013-11-21 05:06:00,39.6,39.6,30.33,East,97,0.0,0.0,100,0.00,BKN,,0.00,WeatherDisplay:10.37,2013-11-21 10:06:00,
2013-11-21 05:08:00,39.7,39.7,30.33,East,97,0.0,0.0,100,0.00,BKN,,0.00,WeatherDisplay:10.37,2013-11-21 10:08:00,
2013-11-21 05:10:00,39.6,39.6,30.33,East,96,0.0,0.0,100,0.00,BKN,,0.00,WeatherDisplay:10.37,2013-11-21 10:10:00,
2013-11-21 05:11:00,39.6,39.6,30.33,East,97,0.0,0.0,100,0.00,BKN,,0.00,WeatherDisplay:10.37,2013-11-21 10:11:00,
2013-11-21 05:13:00,39.7,39.7,30.33,East,97,0.0,0.0,100,0.00,BKN,,0.00,WeatherDisplay:10.37,2013-11-21 10:13:00,
2013-11-21 05:15:00,39.7,39.7,30.33,East,97,0.0,0.0,100,0.00,BKN,,0.00,WeatherDisplay:10.37,2013-11-21 10:15:00,
2013-11-21 05:16:00,39.6,39.6,30.33,East,96,0.0,0.0,100,0.00,BKN,,0.00,WeatherDisplay:10.37,2013-11-21 10:16:00,
2013-11-21 05:17:00,39.6,39.6,30.33,East,96,0.0,0.0,100,0.00,BKN,,0.00,WeatherDisplay:10.37,2013-11-21 10:17:00,
2013-11-21 05:18:00,39.6,39.6,30.33,East,97,0.0,0.0,100,0.00,BKN,,0.00,WeatherDisplay:10.37,2013-11-21 10:18:00,
2013-11-21 05:20:00,39.5,39.5,30.33,East,97,0.0,0.0,100,0.00,BKN,,0.00,WeatherDisplay:10.37,2013-11-21 10:20:00,
2013-11-21 05:21:00,39.5,39.5,30.33,East,97,0.0,0.0,100,0.00,BKN,,0.00,WeatherDisplay:10.37,2013-11-21 10:21:00,
2013-11-21 05:22:00,39.5,39.5,30.33,East,97,0.0,0.0,100,0.00,BKN,,0.00,WeatherDisplay:10.37,2013-11-21 10:22:00,
2013-11-21 05:23:00,39.5,39.5,30.33,East,97,0.0,0.0,100,0.00,BKN,,0.00,WeatherDisplay:10.37,2013-11-21 10:23:00,
2013-11-21 05:25:00,39.5,39.5,30.33,East,97,0.0,0.0,100,0.00,BKN,,0.00,WeatherDisplay:10.37,2013-11-21 10:25:00,
2013-11-21 05:26:00,39.5,39.5,30.33,East,97,0.0,0.0,100,0.00,BKN,,0.00,WeatherDisplay:10.37,2013-11-21 10:26:00,
2013-11-21 05:27:00,39.5,39.5,30.33,East,96,0.0,0.0,100,0.00,BKN,,0.00,WeatherDisplay:10.37,2013-11-21 10:27:00,
2013-11-21 05:28:00,39.5,39.5,30.33,East,97,0.0,0.0,100,0.00,BKN,,0.00,WeatherDisplay:10.37,2013-11-21 10:28:00,
2013-11-21 05:29:00,39.5,39.5,30.33,East,97,0.0,0.0,100,0.00,BKN,,0.00,WeatherDisplay:10.37,2013-11-21 10:29:00,
2013-11-21 05:30:00,39.5,39.5,30.33,East,96,0.0,0.0,100,0.00,BKN,,0.00,WeatherDisplay:10.37,2013-11-21 10:30:00,
2013-11-21 05:31:00,39.5,39.5,30.33,East,97,0.0,0.0,100,0.00,BKN,,0.00,WeatherDisplay:10.37,2013-11-21 10:31:00,
2013-11-21 05:32:00,39.5,39.5,30.33,East,97,0.0,0.0,100,0.00,BKN,,0.00,WeatherDisplay:10.37,2013-11-21 10:32:00,
2013-11-21 05:33:00,39.4,39.4,30.33,East,96,0.0,0.0,100,0.00,BKN,,0.00,WeatherDisplay:10.37,2013-11-21 10:33:00,
2013-11-21 05:35:00,39.4,39.4,30.33,East,97,0.0,0.0,100,0.00,BKN,,0.00,WeatherDisplay:10.37,2013-11-21 10:35:00,
2013-11-21 05:37:00,39.4,39.4,30.33,East,97,0.0,0.0,100,0.00,BKN,,0.00,WeatherDisplay:10.37,2013-11-21 10:37:00,
2013-11-21 05:38:00,39.4,39.4,30.33,East,96,0.0,0.0,100,0.00,BKN,,0.00,WeatherDisplay:10.37,2013-11-21 10:38:00,
2013-11-21 05:40:00,39.4,39.4,30.33,East,96,0.0,0.0,100,0.00,BKN,,0.00,WeatherDisplay:10.37,2013-11-21 10:40:00,
2013-11-21 05:42:00,39.4,39.4,30.33,East,97,0.0,0.0,100,0.00,BKN,,0.00,WeatherDisplay:10.37,2013-11-21 10:42:00,
2013-11-21 05:43:00,39.4,39.4,30.33,East,96,0.0,0.0,100,0.00,BKN,,0.00,WeatherDisplay:10.37,2013-11-21 10:43:00,
2013-11-21 05:44:00,39.4,39.4,30.33,East,97,0.0,0.0,100,0.00,BKN,,0.00,WeatherDisplay:10.37,2013-11-21 10:44:00,
2013-11-21 05:45:00,39.4,39.4,30.33,East,97,0.0,0.0,100,0.00,BKN,,0.00,WeatherDisplay:10.37,2013-11-21 10:45:00,
2013-11-21 05:47:00,39.4,39.4,30.33,East,97,0.0,0.0,100,0.00,BKN,,0.00,WeatherDisplay:10.37,2013-11-21 10:47:00,
2013-11-21 05:48:00,39.5,39.5,30.33,East,97,0.0,0.0,100,0.00,BKN,,0.00,WeatherDisplay:10.37,2013-11-21 10:48:00,
2013-11-21 05:49:00,39.4,39.4,30.33,East,97,0.0,0.0,100,0.00,BKN,,0.00,WeatherDisplay:10.37,2013-11-21 10:49:00,
2013-11-21 05:50:00,39.4,39.4,30.33,East,97,0.0,0.0,100,0.00,BKN,,0.00,WeatherDisplay:10.37,2013-11-21 10:50:00,
2013-11-21 05:52:00,39.4,39.4,30.33,East,96,0.0,0.0,100,0.00,BKN,,0.00,WeatherDisplay:10.37,2013-11-21 10:52:00,
2013-11-21 05:53:00,39.4,39.4,30.33,East,96,0.0,0.0,100,0.00,BKN,,0.00,WeatherDisplay:10.37,2013-11-21 10:53:00,
2013-11-21 05:55:00,39.4,39.4,30.33,East,97,0.0,0.0,100,0.00,BKN,,0.00,WeatherDisplay:10.37,2013-11-21 10:55:00,
2013-11-21 05:56:00,39.4,39.4,30.33,East,96,0.0,0.0,100,0.00,BKN,,0.00,WeatherDisplay:10.37,2013-11-21 10:56:00,
2013-11-21 05:58:00,39.4,39.4,30.33,East,97,0.0,0.0,100,0.00,BKN,,0.00,WeatherDisplay:10.37,2013-11-21 10:58:00,
2013-11-21 05:59:00,39.4,39.4,30.33,East,96,0.0,0.0,100,0.00,BKN,,0.00,WeatherDisplay:10.37,2013-11-21 10:59:00,
2013-11-21 06:00:00,39.4,39.4,30.33,East,97,0.0,0.0,100,0.00,BKN,,0.00,WeatherDisplay:10.37,2013-11-21 11:00:00,
2013-11-21 06:01:00,39.4,39.4,30.33,East,97,0.0,0.0,100,0.00,SCT,,0.00,WeatherDisplay:10.37,2013-11-21 11:01:00,
2013-11-21 06:03:00,39.5,39.5,30.33,East,97,0.0,0.0,100,0.00,SCT,,0.00,WeatherDisplay:10.37,2013-11-21 11:03:00,
2013-11-21 06:04:00,39.5,39.5,30.33,East,96,0.0,0.0,100,0.00,SCT,,0.00,WeatherDisplay:10.37,2013-11-21 11:04:00,
2013-11-21 06:05:00,39.6,39.6,30.33,East,97,0.0,0.0,100,0.00,SCT,,0.00,WeatherDisplay:10.37,2013-11-21 11:05:00,
2013-11-21 06:06:00,39.6,39.6,30.33,East,96,0.0,0.0,100,0.00,SCT,,0.00,WeatherDisplay:10.37,2013-11-21 11:06:00,
2013-11-21 06:08:00,39.6,39.6,30.33,East,97,0.0,0.0,100,0.00,SCT,,0.00,WeatherDisplay:10.37,2013-11-21 11:08:00,
2013-11-21 06:10:00,39.7,39.7,30.33,East,96,0.0,0.0,100,0.00,SCT,,0.00,WeatherDisplay:10.37,2013-11-21 11:10:00,
2013-11-21 06:11:00,39.7,39.7,30.33,East,96,0.0,0.0,100,0.00,SCT,,0.00,WeatherDisplay:10.37,2013-11-21 11:11:00,
2013-11-21 06:13:00,39.7,39.7,30.33,East,97,0.0,0.0,100,0.00,SCT,,0.00,WeatherDisplay:10.37,2013-11-21 11:13:00,
2013-11-21 06:15:00,39.7,39.7,30.33,East,96,0.0,0.0,100,0.00,SCT,,0.00,WeatherDisplay:10.37,2013-11-21 11:15:00,
2013-11-21 06:16:00,39.6,39.6,30.33,East,97,0.0,0.0,100,0.00,SCT,,0.00,WeatherDisplay:10.37,2013-11-21 11:16:00,
2013-11-21 06:18:00,39.6,39.6,30.33,East,96,0.0,0.0,100,0.00,SCT,,0.00,WeatherDisplay:10.37,2013-11-21 11:18:00,
2013-11-21 06:19:00,39.5,39.5,30.33,East,97,0.0,0.0,100,0.00,SCT,,0.00,WeatherDisplay:10.37,2013-11-21 11:19:00,
2013-11-21 06:21:00,39.5,39.5,30.33,East,97,0.0,0.0,100,0.00,SCT,,0.00,WeatherDisplay:10.37,2013-11-21 11:21:00,
2013-11-21 06:24:00,39.5,39.5,30.33,East,97,0.0,0.0,100,0.00,SCT,,0.00,WeatherDisplay:10.37,2013-11-21 11:24:00,
2013-11-21 06:26:00,39.3,39.3,30.34,East,97,0.0,0.0,100,0.00,SCT,,0.00,WeatherDisplay:10.37,2013-11-21 11:26:00,
2013-11-21 06:27:00,39.3,39.3,30.34,East,96,0.0,0.0,100,0.00,SCT,,0.00,WeatherDisplay:10.37,2013-11-21 11:27:00,
2013-11-21 06:29:00,39.3,39.3,30.34,East,97,0.0,0.0,100,0.00,SCT,,0.00,WeatherDisplay:10.37,2013-11-21 11:29:00,
2013-11-21 06:31:00,39.3,39.3,30.34,East,96,0.0,0.0,100,0.00,SCT,,0.00,WeatherDisplay:10.37,2013-11-21 11:31:00,
2013-11-21 06:32:00,39.3,39.3,30.34,East,97,0.0,0.0,100,0.00,SCT,,0.00,WeatherDisplay:10.37,2013-11-21 11:32:00,
2013-11-21 06:34:00,39.3,39.3,30.34,East,97,0.0,0.0,100,0.00,SCT,,0.00,WeatherDisplay:10.37,2013-11-21 11:34:00,
2013-11-21 06:37:00,39.5,39.5,30.34,East,96,0.0,0.0,100,0.00,SCT,,0.00,WeatherDisplay:10.37,2013-11-21 11:37:00,
2013-11-21 06:39:00,39.6,39.6,30.34,East,97,0.0,0.0,100,0.00,SCT,,0.00,WeatherDisplay:10.37,2013-11-21 11:39:00,
2013-11-21 06:42:00,39.7,39.7,30.34,East,97,0.0,0.0,100,0.00,SCT,,0.00,WeatherDisplay:10.37,2013-11-21 11:42:00,
2013-11-21 06:44:00,39.8,39.8,30.34,East,97,0.0,0.0,100,0.00,SCT,,0.00,WeatherDisplay:10.37,2013-11-21 11:44:00,
2013-11-21 06:47:00,39.8,39.8,30.34,East,96,0.0,0.0,100,0.00,SCT,,0.00,WeatherDisplay:10.37,2013-11-21 11:47:00,
2013-11-21 06:48:00,39.8,39.8,30.34,East,97,0.0,0.0,100,0.00,SCT,,0.00,WeatherDisplay:10.37,2013-11-21 11:48:00,
2013-11-21 06:49:00,39.9,39.9,30.34,East,97,0.0,0.0,100,0.00,SCT,,0.00,WeatherDisplay:10.37,2013-11-21 11:49:00,
2013-11-21 06:52:00,39.9,39.9,30.34,East,97,0.0,0.0,100,0.00,SCT,,0.00,WeatherDisplay:10.37,2013-11-21 11:52:00,
2013-11-21 06:53:00,40.0,40.0,30.35,East,97,0.0,0.0,100,0.00,SCT,,0.00,WeatherDisplay:10.37,2013-11-21 11:53:00,
2013-11-21 06:55:00,40.0,40.0,30.34,East,97,0.0,0.0,100,0.00,SCT,,0.00,WeatherDisplay:10.37,2013-11-21 11:55:00,
2013-11-21 06:57:00,40.1,40.1,30.35,East,97,0.0,0.0,100,0.00,SCT,,0.00,WeatherDisplay:10.37,2013-11-21 11:57:00,
2013-11-21 06:58:00,40.1,40.1,30.35,East,96,0.0,0.0,100,0.00,SCT,,0.00,WeatherDisplay:10.37,2013-11-21 11:58:00,
2013-11-21 07:00:00,40.1,40.1,30.34,East,97,0.0,0.0,100,0.00,SCT,,0.00,WeatherDisplay:10.37,2013-11-21 12:00:00,
2013-11-21 07:03:00,40.2,40.2,30.35,East,96,0.0,0.0,100,0.00,SCT,,0.00,WeatherDisplay:10.37,2013-11-21 12:03:00,
2013-11-21 07:05:00,40.3,40.3,30.35,East,97,0.0,0.0,100,0.00,SCT,,0.00,WeatherDisplay:10.37,2013-11-21 12:05:00,
2013-11-21 07:08:00,40.3,40.3,30.35,East,96,0.0,0.0,100,0.00,SCT,,0.00,WeatherDisplay:10.37,2013-11-21 12:08:00,
2013-11-21 07:09:00,40.3,40.3,30.35,East,97,0.0,0.0,100,0.00,SCT,,0.00,WeatherDisplay:10.37,2013-11-21 12:09:00,
2013-11-21 07:10:00,40.4,40.4,30.35,East,97,0.0,0.0,100,0.00,SCT,,0.00,WeatherDisplay:10.37,2013-11-21 12:10:00,
2013-11-21 07:13:00,40.4,40.4,30.35,East,96,0.0,0.0,100,0.00,SCT,,0.00,WeatherDisplay:10.37,2013-11-21 12:13:00,
2013-11-21 07:14:00,40.4,40.4,30.35,East,97,0.0,0.0,100,0.00,SCT,,0.00,WeatherDisplay:10.37,2013-11-21 12:14:00,
2013-11-21 07:15:00,40.5,40.5,30.35,East,96,0.0,1.1,100,0.00,SCT,,0.00,WeatherDisplay:10.37,2013-11-21 12:15:00,
2013-11-21 07:18:00,40.6,40.6,30.36,East,97,0.0,0.0,100,0.00,SCT,,0.00,WeatherDisplay:10.37,2013-11-21 12:18:00,
2013-11-21 07:19:00,40.6,40.6,30.36,East,96,0.0,0.0,100,0.00,SCT,,0.00,WeatherDisplay:10.37,2013-11-21 12:19:00,
2013-11-21 07:20:00,40.7,40.7,30.36,East,97,0.0,0.0,100,0.00,SCT,,0.00,WeatherDisplay:10.37,2013-11-21 12:20:00,
2013-11-21 07:23:00,40.8,40.8,30.36,East,97,0.0,0.0,100,0.00,SCT,,0.00,WeatherDisplay:10.37,2013-11-21 12:23:00,
2013-11-21 07:24:00,40.9,40.9,30.36,East,96,0.0,0.0,100,0.00,SCT,,0.00,WeatherDisplay:10.37,2013-11-21 12:24:00,
2013-11-21 07:25:00,40.9,40.9,30.36,East,97,0.0,0.0,100,0.00,SCT,,0.00,WeatherDisplay:10.37,2013-11-21 12:25:00,
2013-11-21 07:28:00,41.0,41.0,30.36,East,97,0.1,3.0,100,0.00,SCT,,0.00,WeatherDisplay:10.37,2013-11-21 12:28:00,
2013-11-21 07:29:00,41.0,41.0,30.36,East,96,0.7,3.5,100,0.00,SCT,,0.00,WeatherDisplay:10.37,2013-11-21 12:29:00,
2013-11-21 07:30:00,41.1,41.1,30.36,East,97,0.0,0.0,100,0.00,SCT,,0.00,WeatherDisplay:10.37,2013-11-21 12:30:00,
2013-11-21 07:31:00,41.1,41.1,30.36,East,97,0.0,0.0,100,0.00,SCT,,0.00,WeatherDisplay:10.37,2013-11-21 12:31:00,
2013-11-21 07:33:00,41.1,41.1,30.36,East,97,0.4,2.3,100,0.00,SCT,,0.00,WeatherDisplay:10.37,2013-11-21 12:33:00,
2013-11-21 07:35:00,41.1,41.1,30.36,East,85,0.5,1.1,100,0.00,SCT,,0.00,WeatherDisplay:10.37,2013-11-21 12:35:00,
2013-11-21 07:36:00,41.1,41.1,30.36,East,85,0.0,2.3,100,0.00,SCT,,0.00,WeatherDisplay:10.37,2013-11-21 12:36:00,
2013-11-21 07:38:00,41.2,41.2,30.37,East,84,0.0,0.0,100,0.00,SCT,,0.00,WeatherDisplay:10.37,2013-11-21 12:38:00,
2013-11-21 07:41:00,41.3,41.3,30.36,NNE,32,0.8,3.5,100,0.00,SCT,,0.00,WeatherDisplay:10.37,2013-11-21 12:41:00,
2013-11-21 07:44:00,41.5,41.5,30.36,NE,54,0.7,3.5,100,0.00,SCT,,0.00,WeatherDisplay:10.37,2013-11-21 12:44:00,
2013-11-21 07:46:00,41.7,41.7,30.36,NE,53,1.1,3.5,100,0.00,SCT,,0.00,WeatherDisplay:10.37,2013-11-21 12:46:00,
2013-11-21 07:49:00,41.9,41.9,30.36,NE,54,0.0,2.3,100,0.00,SCT,,0.00,WeatherDisplay:10.37,2013-11-21 12:49:00,
2013-11-21 07:51:00,41.9,41.9,30.36,NE,54,0.0,2.3,100,0.00,SCT,,0.00,WeatherDisplay:10.37,2013-11-21 12:51:00,
2013-11-21 07:52:00,42.0,42.0,30.36,NE,49,0.9,3.5,100,0.00,SCT,,0.00,WeatherDisplay:10.37,2013-11-21 12:52:00,
2013-11-21 07:54:00,42.0,42.0,30.36,ENE,60,0.9,3.5,100,0.00,SCT,,0.00,WeatherDisplay:10.37,2013-11-21 12:54:00,
2013-11-21 07:56:00,42.1,42.1,30.37,NE,34,2.4,3.5,100,0.00,SCT,,0.00,WeatherDisplay:10.37,2013-11-21 12:56:00,
2013-11-21 07:57:00,42.1,42.1,30.37,NNE,33,1.3,4.6,100,0.00,SCT,,0.00,WeatherDisplay:10.37,2013-11-21 12:57:00,
2013-11-21 07:59:00,42.1,42.1,30.37,NE,50,0.0,0.0,100,0.00,SCT,,0.00,WeatherDisplay:10.37,2013-11-21 12:59:00,
2013-11-21 08:01:00,42.2,42.2,30.37,ENE,65,1.3,3.5,100,0.00,SCT,,0.00,WeatherDisplay:10.37,2013-11-21 13:01:00,
2013-11-21 08:02:00,42.2,42.2,30.37,ENE,65,1.7,3.5,100,0.00,SCT,,0.00,WeatherDisplay:10.37,2013-11-21 13:02:00,
2013-11-21 08:04:00,42.4,42.4,30.37,ENE,68,0.0,2.3,100,0.00,SCT,,0.00,WeatherDisplay:10.37,2013-11-21 13:04:00,
2013-11-21 08:06:00,42.6,42.6,30.37,ENE,69,2.3,3.5,100,0.00,SCT,,0.00,WeatherDisplay:10.37,2013-11-21 13:06:00,
2013-11-21 08:07:00,42.6,42.6,30.37,ENE,69,2.2,3.5,100,0.00,SCT,,0.00,WeatherDisplay:10.37,2013-11-21 13:07:00,
2013-11-21 08:09:00,42.8,42.8,30.37,ENE,69,2.3,3.5,100,0.00,SCT,,0.00,WeatherDisplay:10.37,2013-11-21 13:09:00,
2013-11-21 08:12:00,43.0,43.0,30.36,East,81,2.6,3.5,100,0.00,SCT,,0.00,WeatherDisplay:10.37,2013-11-21 13:12:00,
2013-11-21 08:13:00,43.1,43.1,30.36,NE,50,0.7,3.5,100,0.00,SCT,,0.00,WeatherDisplay:10.37,2013-11-21 13:13:00,
2013-11-21 08:14:00,43.2,43.2,30.36,East,84,2.4,3.5,100,0.00,SCT,,0.00,WeatherDisplay:10.37,2013-11-21 13:14:00,
2013-11-21 08:17:00,43.5,43.5,30.36,ENE,68,2.1,3.5,100,0.00,SCT,,0.00,WeatherDisplay:10.37,2013-11-21 13:17:00,
2013-11-21 08:18:00,43.6,43.6,30.36,ENE,70,3.5,5.0,100,0.00,SCT,,0.00,WeatherDisplay:10.37,2013-11-21 13:18:00,
2013-11-21 08:19:00,43.7,43.7,30.36,ENE,61,3.4,4.6,100,0.00,SCT,,0.00,WeatherDisplay:10.37,2013-11-21 13:19:00,
2013-11-21 08:22:00,44.1,44.1,30.36,ENE,78,2.4,3.5,100,0.00,SCT,,0.00,WeatherDisplay:10.37,2013-11-21 13:22:00,
2013-11-21 08:23:00,44.1,44.1,30.36,East,79,1.4,4.0,100,0.00,SCT,,0.00,WeatherDisplay:10.37,2013-11-21 13:23:00,
2013-11-21 08:24:00,44.3,44.3,30.36,East,81,3.8,4.0,100,0.00,SCT,,0.00,WeatherDisplay:10.37,2013-11-21 13:24:00,
2013-11-21 08:27:00,44.5,44.5,30.36,ENE,73,1.8,4.6,100,0.00,SCT,,0.00,WeatherDisplay:10.37,2013-11-21 13:27:00,
2013-11-21 08:28:00,44.6,44.6,30.36,ENE,73,0.0,3.5,100,0.00,SCT,,0.00,WeatherDisplay:10.37,2013-11-21 13:28:00,
2013-11-21 08:29:00,44.7,44.7,30.37,ENE,73,0.1,1.0,100,0.00,SCT,,0.00,WeatherDisplay:10.37,2013-11-21 13:29:00,
2013-11-21 08:32:00,45.1,45.1,30.36,ENE,77,0.0,1.0,100,0.00,SCT,,0.00,WeatherDisplay:10.37,2013-11-21 13:32:00,
2013-11-21 08:33:00,45.2,45.2,30.36,ENE,78,0.1,1.1,100,0.00,SCT,,0.00,WeatherDisplay:10.37,2013-11-21 13:33:00,
2013-11-21 08:34:00,45.3,45.3,30.36,East,79,0.6,2.3,100,0.00,SCT,,0.00,WeatherDisplay:10.37,2013-11-21 13:34:00,
2013-11-21 08:37:00,45.5,45.5,30.36,East,79,0.5,3.5,100,0.00,SCT,,0.00,WeatherDisplay:10.37,2013-11-21 13:37:00,
2013-11-21 08:38:00,45.5,45.5,30.36,East,97,1.5,3.5,100,0.00,SCT,,0.00,WeatherDisplay:10.37,2013-11-21 13:38:00,
2013-11-21 08:39:00,45.5,45.5,30.36,East,88,1.4,3.5,100,0.00,SCT,,0.00,WeatherDisplay:10.37,2013-11-21 13:39:00,
2013-11-21 08:42:00,45.4,45.4,30.36,East,95,0.0,0.0,100,0.00,SCT,,0.00,WeatherDisplay:10.37,2013-11-21 13:42:00,
2013-11-21 08:44:00,45.4,45.4,30.36,East,95,0.0,0.0,100,0.00,SCT,,0.00,WeatherDisplay:10.37,2013-11-21 13:44:00,
2013-11-21 08:47:00,45.4,45.4,30.36,East,95,0.0,0.0,100,0.00,SCT,,0.00,WeatherDisplay:10.37,2013-11-21 13:47:00,
2013-11-21 08:49:00,45.4,45.4,30.37,ESE,115,3.1,3.5,100,0.00,SCT,,0.00,WeatherDisplay:10.37,2013-11-21 13:49:00,
2013-11-21 08:50:00,45.4,45.4,30.37,East,101,3.5,4.6,100,0.00,SCT,,0.00,WeatherDisplay:10.37,2013-11-21 13:50:00,
2013-11-21 08:53:00,45.6,45.6,30.37,ENE,65,3.1,5.8,100,0.00,SCT,,0.00,WeatherDisplay:10.37,2013-11-21 13:53:00,
2013-11-21 08:54:00,45.6,45.6,30.36,East,81,3.5,6.0,100,0.00,SCT,,0.00,WeatherDisplay:10.37,2013-11-21 13:54:00,
2013-11-21 08:55:00,45.6,45.6,30.36,East,82,4.2,7.0,100,0.00,SCT,,0.00,WeatherDisplay:10.37,2013-11-21 13:55:00,
2013-11-21 08:56:00,45.7,45.7,30.37,East,85,2.6,6.9,100,0.00,SCT,,0.00,WeatherDisplay:10.37,2013-11-21 13:56:00,
2013-11-21 08:58:00,45.7,45.7,30.37,East,91,5.9,10.4,100,0.00,SCT,,0.00,WeatherDisplay:10.37,2013-11-21 13:58:00,
2013-11-21 09:00:00,45.8,45.8,30.37,ENE,73,4.5,7.0,100,0.00,SCT,,0.00,WeatherDisplay:10.37,2013-11-21 14:00:00,
2013-11-21 09:01:00,45.8,45.8,30.37,ESE,102,4.5,8.1,100,0.00,BKN,,0.00,WeatherDisplay:10.37,2013-11-21 14:01:00,
2013-11-21 09:03:00,45.9,45.9,30.36,ENE,66,6.0,9.0,100,0.00,BKN,,0.00,WeatherDisplay:10.37,2013-11-21 14:03:00,
2013-11-21 09:05:00,46.0,46.0,30.36,ENE,77,9.6,11.5,100,0.00,BKN,,0.00,WeatherDisplay:10.37,2013-11-21 14:05:00,
2013-11-21 09:07:00,46.1,46.1,30.37,East,90,6.4,9.2,100,0.00,BKN,,0.00,WeatherDisplay:10.37,2013-11-21 14:07:00,
2013-11-21 09:08:00,46.1,46.1,30.37,East,85,6.6,10.4,100,0.00,BKN,,0.00,WeatherDisplay:10.37,2013-11-21 14:08:00,
2013-11-21 09:10:00,46.1,46.1,30.37,ENE,71,6.4,8.1,100,0.00,BKN,,0.00,WeatherDisplay:10.37,2013-11-21 14:10:00,
2013-11-21 09:12:00,46.1,46.1,30.37,East,92,5.4,8.1,100,0.00,BKN,,0.00,WeatherDisplay:10.37,2013-11-21 14:12:00,
2013-11-21 09:13:00,46.2,46.2,30.37,ENE,73,5.2,6.9,100,0.00,BKN,,0.00,WeatherDisplay:10.37,2013-11-21 14:13:00,
2013-11-21 09:15:00,46.3,46.3,30.36,ENE,63,6.1,7.0,100,0.00,BKN,,0.00,WeatherDisplay:10.37,2013-11-21 14:15:00,
2013-11-21 09:16:00,46.4,46.4,30.36,NE,48,4.2,6.9,100,0.00,BKN,,0.00,WeatherDisplay:10.37,2013-11-21 14:16:00,
2013-11-21 09:17:00,46.4,46.4,30.37,ENE,64,5.0,8.1,100,0.00,BKN,,0.00,WeatherDisplay:10.37,2013-11-21 14:17:00,
2013-11-21 09:19:00,46.4,46.4,30.37,ENE,68,1.8,4.0,100,0.00,BKN,,0.00,WeatherDisplay:10.37,2013-11-21 14:19:00,
2013-11-21 09:20:00,46.5,46.5,30.37,East,81,2.5,5.8,100,0.00,BKN,,0.00,WeatherDisplay:10.37,2013-11-21 14:20:00,
2013-11-21 09:21:00,46.5,46.5,30.37,East,97,3.7,5.8,100,0.00,BKN,,0.00,WeatherDisplay:10.37,2013-11-21 14:21:00,
2013-11-21 09:22:00,46.6,46.6,30.37,ENE,73,3.2,6.9,100,0.00,BKN,,0.00,WeatherDisplay:10.37,2013-11-21 14:22:00,
2013-11-21 09:24:00,46.8,46.8,30.37,East,88,4.1,8.1,100,0.00,BKN,,0.00,WeatherDisplay:10.37,2013-11-21 14:24:00,
2013-11-21 09:25:00,46.9,46.9,30.37,East,81,6.2,9.2,100,0.00,BKN,,0.00,WeatherDisplay:10.37,2013-11-21 14:25:00,
2013-11-21 09:26:00,46.9,46.9,30.37,East,96,6.1,9.2,100,0.00,BKN,,0.00,WeatherDisplay:10.37,2013-11-21 14:26:00,
2013-11-21 09:27:00,47.0,47.0,30.37,East,82,3.7,6.9,100,0.00,BKN,,0.00,WeatherDisplay:10.37,2013-11-21 14:27:00,
2013-11-21 09:29:00,47.0,47.0,30.37,ENE,77,3.6,8.0,100,0.00,BKN,,0.00,WeatherDisplay:10.37,2013-11-21 14:29:00,
2013-11-21 09:30:00,47.1,47.1,30.37,East,82,6.7,9.2,100,0.00,BKN,,0.00,WeatherDisplay:10.37,2013-11-21 14:30:00,
2013-11-21 09:31:00,47.1,47.1,30.37,ENE,75,6.8,9.2,100,0.00,BKN,,0.00,WeatherDisplay:10.37,2013-11-21 14:31:00,
2013-11-21 09:32:00,47.1,47.1,30.37,East,80,5.8,6.9,100,0.00,BKN,,0.00,WeatherDisplay:10.37,2013-11-21 14:32:00,
2013-11-21 09:33:00,47.1,47.1,30.37,ENE,66,3.5,8.1,100,0.00,BKN,,0.00,WeatherDisplay:10.37,2013-11-21 14:33:00,
2013-11-21 09:34:00,47.1,47.1,30.37,ENE,73,5.3,8.1,100,0.00,BKN,,0.00,WeatherDisplay:10.37,2013-11-21 14:34:00,
2013-11-21 09:36:00,47.1,47.1,30.37,ENE,69,4.5,6.9,100,0.00,BKN,,0.00,WeatherDisplay:10.37,2013-11-21 14:36:00,
2013-11-21 09:38:00,47.2,47.2,30.37,East,83,4.1,5.8,100,0.00,BKN,,0.00,WeatherDisplay:10.37,2013-11-21 14:38:00,
2013-11-21 09:39:00,47.3,47.3,30.37,ENE,78,3.9,4.6,100,0.00,BKN,,0.00,WeatherDisplay:10.37,2013-11-21 14:39:00,
2013-11-21 09:41:00,47.4,47.4,30.37,ENE,68,3.1,4.6,100,0.00,BKN,,0.00,WeatherDisplay:10.37,2013-11-21 14:41:00,
2013-11-21 09:42:00,47.5,47.5,30.37,East,91,3.0,4.6,100,0.00,BKN,,0.00,WeatherDisplay:10.37,2013-11-21 14:42:00,
2013-11-21 09:43:00,47.6,47.6,30.37,ENE,71,5.3,5.8,100,0.00,BKN,,0.00,WeatherDisplay:10.37,2013-11-21 14:43:00,
2013-11-21 09:44:00,47.7,47.7,30.36,ENE,77,2.7,6.9,100,0.00,BKN,,0.00,WeatherDisplay:10.37,2013-11-21 14:44:00,
2013-11-21 09:45:00,47.8,47.8,30.36,East,86,4.4,5.8,100,0.00,BKN,,0.00,WeatherDisplay:10.37,2013-11-21 14:45:00,
2013-11-21 09:46:00,47.9,47.9,30.37,ESE,120,4.0,6.0,100,0.00,BKN,,0.00,WeatherDisplay:10.37,2013-11-21 14:46:00,
2013-11-21 09:47:00,48.0,48.0,30.36,East,87,2.7,5.8,100,0.00,BKN,,0.00,WeatherDisplay:10.37,2013-11-21 14:47:00,
2013-11-21 09:49:00,48.1,48.1,30.36,East,85,2.8,5.8,100,0.00,BKN,,0.00,WeatherDisplay:10.37,2013-11-21 14:49:00,
2013-11-21 09:50:00,48.2,48.2,30.37,ENE,66,3.6,4.6,100,0.00,BKN,,0.00,WeatherDisplay:10.37,2013-11-21 14:50:00,
2013-11-21 09:51:00,48.3,48.3,30.36,ENE,67,3.1,4.6,100,0.00,BKN,,0.00,WeatherDisplay:10.37,2013-11-21 14:51:00,
2013-11-21 09:52:00,48.3,48.3,30.36,East,82,3.4,4.6,100,0.00,BKN,,0.00,WeatherDisplay:10.37,2013-11-21 14:52:00,
2013-11-21 09:54:00,48.5,48.5,30.36,ENE,61,3.3,4.6,100,0.00,BKN,,0.00,WeatherDisplay:10.37,2013-11-21 14:54:00,
2013-11-21 09:57:00,48.6,48.6,30.36,ENE,71,3.0,4.6,100,0.00,BKN,,0.00,WeatherDisplay:10.37,2013-11-21 14:57:00,
2013-11-21 09:59:00,48.7,48.7,30.36,NE,54,2.2,4.6,100,0.00,BKN,,0.00,WeatherDisplay:10.37,2013-11-21 14:59:00,
2013-11-21 10:00:00,48.8,48.8,30.36,ENE,62,3.1,4.6,100,0.00,BKN,,0.00,WeatherDisplay:10.37,2013-11-21 15:00:00,
2013-11-21 10:02:00,49.0,49.0,30.36,ESE,106,2.3,3.5,100,0.00,OVC,,0.00,WeatherDisplay:10.37,2013-11-21 15:02:00,
2013-11-21 10:03:00,49.1,49.1,30.36,ENE,66,1.3,6.0,100,0.00,OVC,,0.00,WeatherDisplay:10.37,2013-11-21 15:03:00,
2013-11-21 10:04:00,49.2,49.2,30.36,East,84,5.7,6.9,100,0.00,OVC,,0.00,WeatherDisplay:10.37,2013-11-21 15:04:00,
2013-11-21 10:05:00,49.2,49.2,30.36,East,85,4.9,8.1,100,0.00,OVC,,0.00,WeatherDisplay:10.37,2013-11-21 15:05:00,
2013-11-21 10:07:00,49.3,49.3,30.36,East,101,2.8,5.8,100,0.00,OVC,,0.00,WeatherDisplay:10.37,2013-11-21 15:07:00,
2013-11-21 10:08:00,49.4,49.4,30.36,ENE,65,3.8,4.6,100,0.00,OVC,,0.00,WeatherDisplay:10.37,2013-11-21 15:08:00,
2013-11-21 10:09:00,49.6,49.6,30.36,ENE,74,2.9,5.8,100,0.00,OVC,,0.00,WeatherDisplay:10.37,2013-11-21 15:09:00,
2013-11-21 10:10:00,49.8,49.8,30.36,East,100,4.0,6.9,100,0.00,OVC,,0.00,WeatherDisplay:10.37,2013-11-21 15:10:00,
2013-11-21 10:13:00,50.0,50.0,30.36,ENE,78,4.5,6.9,100,0.00,OVC,,0.00,WeatherDisplay:10.37,2013-11-21 15:13:00,
2013-11-21 10:14:00,50.1,50.1,30.36,ESE,112,4.1,5.8,100,0.00,OVC,,0.00,WeatherDisplay:10.37,2013-11-21 15:14:00,
2013-11-21 10:15:00,50.1,50.1,30.36,East,79,5.8,6.0,100,0.00,OVC,,0.00,WeatherDisplay:10.37,2013-11-21 15:15:00,
2013-11-21 10:18:00,50.2,50.2,30.36,East,93,5.2,6.9,100,0.00,OVC,,0.00,WeatherDisplay:10.37,2013-11-21 15:18:00,
2013-11-21 10:19:00,50.2,50.2,30.36,East,88,3.7,6.9,100,0.00,OVC,,0.00,WeatherDisplay:10.37,2013-11-21 15:19:00,
2013-11-21 10:20:00,50.2,50.2,30.36,East,89,2.7,4.6,100,0.00,OVC,,0.00,WeatherDisplay:10.37,2013-11-21 15:20:00,
2013-11-21 10:21:00,50.3,50.3,30.36,East,89,1.8,4.6,100,0.00,OVC,,0.00,WeatherDisplay:10.37,2013-11-21 15:21:00,
2013-11-21 10:23:00,50.3,50.3,30.36,East,89,1.5,3.5,100,0.00,OVC,,0.00,WeatherDisplay:10.37,2013-11-21 15:23:00,
2013-11-21 10:24:00,50.4,50.4,30.36,ENE,69,2.5,6.0,100,0.00,OVC,,0.00,WeatherDisplay:10.37,2013-11-21 15:24:00,
2013-11-21 10:25:00,50.4,50.4,30.36,East,88,4.3,6.9,100,0.00,OVC,,0.00,WeatherDisplay:10.37,2013-11-21 15:25:00,
2013-11-21 10:26:00,50.4,50.4,30.36,ENE,65,4.2,6.9,100,0.00,OVC,,0.00,WeatherDisplay:10.37,2013-11-21 15:26:00,
2013-11-21 10:28:00,50.5,50.5,30.36,East,81,5.8,5.8,100,0.00,OVC,,0.00,WeatherDisplay:10.37,2013-11-21 15:28:00,
2013-11-21 10:29:00,50.6,50.6,30.36,ENE,78,4.3,8.1,100,0.00,OVC,,0.00,WeatherDisplay:10.37,2013-11-21 15:29:00,
2013-11-21 10:31:00,50.7,50.7,30.36,East,80,1.4,4.6,100,0.00,OVC,,0.00,WeatherDisplay:10.37,2013-11-21 15:31:00,
2013-11-21 10:33:00,50.9,50.9,30.37,East,98,3.2,5.8,100,0.00,OVC,,0.00,WeatherDisplay:10.37,2013-11-21 15:33:00,
2013-11-21 10:34:00,50.9,50.9,30.37,East,85,2.8,4.6,100,0.00,OVC,,0.00,WeatherDisplay:10.37,2013-11-21 15:34:00,
2013-11-21 10:35:00,50.9,50.9,30.37,East,99,5.4,6.9,100,0.00,OVC,,0.00,WeatherDisplay:10.37,2013-11-21 15:35:00,
2013-11-21 10:36:00,50.9,50.9,30.37,East,96,5.3,6.9,100,0.00,OVC,,0.00,WeatherDisplay:10.37,2013-11-21 15:36:00,
2013-11-21 10:38:00,51.0,51.0,30.37,East,97,4.4,5.8,100,0.00,OVC,,0.00,WeatherDisplay:10.37,2013-11-21 15:38:00,
2013-11-21 10:39:00,50.9,50.9,30.36,East,96,3.1,5.8,100,0.00,OVC,,0.00,WeatherDisplay:10.37,2013-11-21 15:39:00,
2013-11-21 10:40:00,50.9,50.9,30.36,East,96,1.3,4.6,100,0.00,OVC,,0.00,WeatherDisplay:10.37,2013-11-21 15:40:00,
2013-11-21 10:41:00,51.0,51.0,30.36,East,96,0.1,2.3,100,0.00,OVC,,0.00,WeatherDisplay:10.37,2013-11-21 15:41:00,
2013-11-21 10:42:00,51.0,51.0,30.37,East,85,0.5,3.0,100,0.00,OVC,,0.00,WeatherDisplay:10.37,2013-11-21 15:42:00,
2013-11-21 10:43:00,51.0,51.0,30.37,ENE,77,3.0,4.6,100,0.00,OVC,,0.00,WeatherDisplay:10.37,2013-11-21 15:43:00,
2013-11-21 10:45:00,51.1,51.1,30.37,East,85,1.9,3.5,100,0.00,OVC,,0.00,WeatherDisplay:10.37,2013-11-21 15:45:00,
2013-11-21 10:46:00,51.2,51.2,30.37,East,82,1.8,3.5,100,0.00,OVC,,0.00,WeatherDisplay:10.37,2013-11-21 15:46:00,
2013-11-21 10:47:00,51.3,51.3,30.37,ENE,77,1.5,3.5,100,0.00,OVC,,0.00,WeatherDisplay:10.37,2013-11-21 15:47:00,
2013-11-21 10:48:00,51.4,51.4,30.37,NE,56,0.0,0.0,100,0.00,OVC,,0.00,WeatherDisplay:10.37,2013-11-21 15:48:00,
2013-11-21 10:50:00,51.6,51.6,30.36,ENE,77,1.9,3.5,100,0.00,OVC,,0.00,WeatherDisplay:10.37,2013-11-21 15:50:00,
2013-11-21 10:51:00,51.6,51.6,30.36,ENE,78,2.3,3.5,100,0.00,OVC,,0.00,WeatherDisplay:10.37,2013-11-21 15:51:00,
2013-11-21 10:52:00,51.7,51.7,30.36,East,89,1.5,3.5,100,0.00,OVC,,0.00,WeatherDisplay:10.37,2013-11-21 15:52:00,
2013-11-21 10:54:00,51.8,51.8,30.36,East,79,3.2,5.8,100,0.00,OVC,,0.00,WeatherDisplay:10.37,2013-11-21 15:54:00,
2013-11-21 10:55:00,51.9,51.9,30.36,NE,54,1.7,5.8,100,0.00,OVC,,0.00,WeatherDisplay:10.37,2013-11-21 15:55:00,
2013-11-21 10:56:00,51.9,51.9,30.36,ENE,63,0.8,4.0,100,0.00,OVC,,0.00,WeatherDisplay:10.37,2013-11-21 15:56:00,
2013-11-21 10:57:00,52.0,52.0,30.36,ENE,74,3.0,4.6,100,0.00,OVC,,0.00,WeatherDisplay:10.37,2013-11-21 15:57:00,
2013-11-21 10:59:00,52.0,52.0,30.36,East,81,1.2,5.8,100,0.00,OVC,,0.00,WeatherDisplay:10.37,2013-11-21 15:59:00,
2013-11-21 11:01:00,52.1,52.1,30.36,East,81,0.0,1.1,100,0.00,OVC,,0.00,WeatherDisplay:10.37,2013-11-21 16:01:00,
2013-11-21 11:02:00,52.1,52.1,30.36,East,82,0.2,4.0,100,0.00,OVC,,0.00,WeatherDisplay:10.37,2013-11-21 16:02:00,
2013-11-21 11:03:00,52.1,52.1,30.36,NE,54,2.6,4.0,100,0.00,OVC,,0.00,WeatherDisplay:10.37,2013-11-21 16:03:00,
2013-11-21 11:04:00,52.1,52.1,30.35,East,87,2.3,4.6,100,0.00,OVC,,0.00,WeatherDisplay:10.37,2013-11-21 16:04:00,
2013-11-21 11:06:00,52.2,52.2,30.35,East,87,2.0,3.5,100,0.00,OVC,,0.00,WeatherDisplay:10.37,2013-11-21 16:06:00,
2013-11-21 11:07:00,52.2,52.2,30.35,East,87,2.0,5.0,100,0.00,OVC,,0.00,WeatherDisplay:10.37,2013-11-21 16:07:00,
2013-11-21 11:08:00,52.2,52.2,30.35,East,79,4.8,5.8,100,0.00,OVC,,0.00,WeatherDisplay:10.37,2013-11-21 16:08:00,
2013-11-21 11:09:00,52.3,52.3,30.35,ENE,73,3.6,6.9,100,0.00,OVC,,0.00,WeatherDisplay:10.37,2013-11-21 16:09:00,
2013-11-21 11:11:00,52.3,52.3,30.34,ENE,62,2.1,4.0,100,0.00,OVC,,0.00,WeatherDisplay:10.37,2013-11-21 16:11:00,
2013-11-21 11:12:00,52.4,52.4,30.35,ENE,63,2.6,3.5,100,0.00,OVC,,0.00,WeatherDisplay:10.37,2013-11-21 16:12:00,
2013-11-21 11:13:00,52.5,52.5,30.35,NE,53,2.8,3.5,100,0.00,OVC,,0.00,WeatherDisplay:10.37,2013-11-21 16:13:00,
2013-11-21 11:14:00,52.5,52.5,30.35,NE,53,1.3,3.5,100,0.00,OVC,,0.00,WeatherDisplay:10.37,2013-11-21 16:14:00,
2013-11-21 11:16:00,52.6,52.6,30.35,ENE,60,3.0,4.6,100,0.00,OVC,,0.00,WeatherDisplay:10.37,2013-11-21 16:16:00,
2013-11-21 11:17:00,52.6,52.6,30.35,NE,40,2.7,4.0,100,0.00,OVC,,0.00,WeatherDisplay:10.37,2013-11-21 16:17:00,
2013-11-21 11:18:00,52.6,52.6,30.34,North,1,1.6,3.5,100,0.00,OVC,,0.00,WeatherDisplay:10.37,2013-11-21 16:18:00,
2013-11-21 11:19:00,52.7,52.7,30.35,North,359,1.4,3.5,100,0.00,OVC,,0.00,WeatherDisplay:10.37,2013-11-21 16:19:00,
2013-11-21 11:21:00,52.9,52.9,30.35,North,10,2.2,3.5,100,0.00,OVC,,0.00,WeatherDisplay:10.37,2013-11-21 16:21:00,
2013-11-21 11:22:00,52.9,52.9,30.35,North,3,2.5,3.5,100,0.00,OVC,,0.00,WeatherDisplay:10.37,2013-11-21 16:22:00,
2013-11-21 11:23:00,53.0,53.0,30.35,North,3,2.1,3.5,100,0.00,OVC,,0.00,WeatherDisplay:10.37,2013-11-21 16:23:00,
2013-11-21 11:24:00,53.0,53.0,30.35,North,358,2.4,3.5,100,0.00,OVC,,0.00,WeatherDisplay:10.37,2013-11-21 16:24:00,
2013-11-21 11:26:00,53.3,53.3,30.35,NE,44,1.3,2.3,100,0.00,OVC,,0.00,WeatherDisplay:10.37,2013-11-21 16:26:00,
2013-11-21 11:27:00,53.4,53.4,30.35,ENE,65,1.2,3.5,100,0.00,OVC,,0.00,WeatherDisplay:10.37,2013-11-21 16:27:00,
2013-11-21 11:28:00,53.5,53.5,30.35,ENE,63,1.6,4.6,100,0.00,OVC,,0.00,WeatherDisplay:10.37,2013-11-21 16:28:00,
2013-11-21 11:29:00,53.5,53.5,30.35,ENE,63,0.0,4.6,100,0.00,OVC,,0.00,WeatherDisplay:10.37,2013-11-21 16:29:00,
2013-11-21 11:31:00,53.6,53.6,30.35,ENE,63,0.0,1.1,100,0.00,OVC,,0.00,WeatherDisplay:10.37,2013-11-21 16:31:00,
2013-11-21 11:32:00,53.6,53.6,30.35,ENE,59,1.0,3.0,100,0.00,OVC,,0.00,WeatherDisplay:10.37,2013-11-21 16:32:00,
2013-11-21 11:33:00,53.6,53.6,30.35,NE,42,1.3,3.5,100,0.00,OVC,,0.00,WeatherDisplay:10.37,2013-11-21 16:33:00,
2013-11-21 11:34:00,53.6,53.6,30.35,North,358,1.7,3.5,100,0.00,OVC,,0.00,WeatherDisplay:10.37,2013-11-21 16:34:00,
2013-11-21 11:36:00,53.6,53.6,30.34,NNW,328,2.2,3.5,100,0.00,OVC,,0.00,WeatherDisplay:10.37,2013-11-21 16:36:00,
2013-11-21 11:37:00,53.7,53.7,30.35,NNW,334,3.5,4.0,100,0.00,OVC,,0.00,WeatherDisplay:10.37,2013-11-21 16:37:00,
2013-11-21 11:38:00,53.6,53.6,30.34,NNW,334,3.6,4.6,100,0.00,OVC,,0.00,WeatherDisplay:10.37,2013-11-21 16:38:00,
2013-11-21 11:39:00,53.6,53.6,30.34,NNW,334,1.7,3.5,100,0.00,OVC,,0.00,WeatherDisplay:10.37,2013-11-21 16:39:00,
2013-11-21 11:40:00,53.6,53.6,30.35,NNW,334,1.6,3.5,100,0.00,OVC,,0.00,WeatherDisplay:10.37,2013-11-21 16:40:00,
2013-11-21 11:42:00,53.7,53.7,30.34,North,354,0.4,3.5,100,0.00,OVC,,0.00,WeatherDisplay:10.37,2013-11-21 16:42:00,
2013-11-21 11:43:00,53.8,53.8,30.35,North,350,0.0,0.0,100,0.00,OVC,,0.00,WeatherDisplay:10.37,2013-11-21 16:43:00,
2013-11-21 11:44:00,53.8,53.8,30.35,North,350,0.0,0.0,100,0.00,OVC,,0.00,WeatherDisplay:10.37,2013-11-21 16:44:00,
2013-11-21 11:45:00,53.9,53.9,30.34,North,350,0.0,0.0,100,0.00,OVC,,0.00,WeatherDisplay:10.37,2013-11-21 16:45:00,
2013-11-21 11:47:00,54.0,54.0,30.34,North,350,1.4,3.5,100,0.00,OVC,,0.00,WeatherDisplay:10.37,2013-11-21 16:47:00,
2013-11-21 11:48:00,54.1,54.1,30.34,North,350,0.0,0.0,100,0.00,OVC,,0.00,WeatherDisplay:10.37,2013-11-21 16:48:00,
2013-11-21 11:49:00,54.1,54.1,30.34,North,354,0.0,0.0,100,0.00,OVC,,0.00,WeatherDisplay:10.37,2013-11-21 16:49:00,
2013-11-21 11:50:00,54.1,54.1,30.34,North,355,0.0,1.1,100,0.00,OVC,,0.00,WeatherDisplay:10.37,2013-11-21 16:50:00,
2013-11-21 11:52:00,54.2,54.2,30.34,North,350,2.6,4.0,100,0.00,OVC,,0.00,WeatherDisplay:10.37,2013-11-21 16:52:00,
2013-11-21 11:54:00,54.2,54.2,30.34,North,349,1.9,3.5,100,0.00,OVC,,0.00,WeatherDisplay:10.37,2013-11-21 16:54:00,
2013-11-21 11:55:00,54.2,54.2,30.34,North,349,2.3,3.5,100,0.00,OVC,,0.00,WeatherDisplay:10.37,2013-11-21 16:55:00,
2013-11-21 11:57:00,54.3,54.3,30.34,North,349,0.0,0.0,100,0.00,OVC,,0.00,WeatherDisplay:10.37,2013-11-21 16:57:00,
2013-11-21 11:58:00,54.4,54.4,30.34,North,349,0.0,0.0,100,0.00,OVC,,0.00,WeatherDisplay:10.37,2013-11-21 16:58:00,
2013-11-21 11:59:00,54.5,54.5,30.34,North,349,0.0,0.0,100,0.00,OVC,,0.00,WeatherDisplay:10.37,2013-11-21 16:59:00,
2013-11-21 12:00:00,54.6,54.6,30.34,North,349,0.0,0.0,100,0.00,OVC,,0.00,WeatherDisplay:10.37,2013-11-21 17:00:00,
2013-11-21 12:02:00,54.7,54.7,30.34,North,349,0.0,1.1,100,0.00,BKN,,0.00,WeatherDisplay:10.37,2013-11-21 17:02:00,
2013-11-21 12:03:00,54.8,54.8,30.34,NNE,18,1.9,3.0,100,0.00,BKN,,0.00,WeatherDisplay:10.37,2013-11-21 17:03:00,
2013-11-21 12:04:00,54.8,54.8,30.34,NNE,18,2.1,3.5,100,0.00,BKN,,0.00,WeatherDisplay:10.37,2013-11-21 17:04:00,
2013-11-21 12:05:00,54.8,54.8,30.33,NNE,18,0.3,3.5,100,0.00,BKN,,0.00,WeatherDisplay:10.37,2013-11-21 17:05:00,
2013-11-21 12:06:00,54.9,54.9,30.33,NNE,18,0.0,0.0,100,0.00,BKN,,0.00,WeatherDisplay:10.37,2013-11-21 17:06:00,
2013-11-21 12:07:00,55.0,55.0,30.33,NNE,18,0.0,1.1,100,0.00,BKN,,0.00,WeatherDisplay:10.37,2013-11-21 17:07:00,
2013-11-21 12:09:00,55.3,55.3,30.33,NNE,18,0.0,3.5,100,0.00,BKN,,0.00,WeatherDisplay:10.37,2013-11-21 17:09:00,
2013-11-21 12:10:00,55.5,55.5,30.33,NNE,18,0.0,0.0,100,0.00,BKN,,0.00,WeatherDisplay:10.37,2013-11-21 17:10:00,
2013-11-21 12:11:00,55.6,55.6,30.33,North,355,1.6,3.0,100,0.00,BKN,,0.00,WeatherDisplay:10.37,2013-11-21 17:11:00,
2013-11-21 12:12:00,55.8,55.8,30.33,North,355,2.6,3.5,100,0.00,BKN,,0.00,WeatherDisplay:10.37,2013-11-21 17:12:00,
2013-11-21 12:14:00,56.1,56.1,30.33,ENE,57,3.3,4.6,100,0.00,BKN,,0.00,WeatherDisplay:10.37,2013-11-21 17:14:00,
2013-11-21 12:15:00,56.2,56.2,30.33,ENE,68,3.8,4.6,100,0.00,BKN,,0.00,WeatherDisplay:10.37,2013-11-21 17:15:00,
2013-11-21 12:16:00,56.2,56.2,30.33,ENE,73,0.1,4.6,100,0.00,BKN,,0.00,WeatherDisplay:10.37,2013-11-21 17:16:00,
2013-11-21 12:17:00,56.4,56.4,30.33,ENE,73,0.0,0.0,100,0.00,BKN,,0.00,WeatherDisplay:10.37,2013-11-21 17:17:00,
2013-11-21 12:19:00,56.7,56.7,30.33,East,81,0.1,2.0,100,0.00,BKN,,0.00,WeatherDisplay:10.37,2013-11-21 17:19:00,
2013-11-21 12:20:00,56.9,56.9,30.33,NNE,18,0.4,4.0,100,0.00,BKN,,0.00,WeatherDisplay:10.37,2013-11-21 17:20:00,
2013-11-21 12:22:00,57.2,57.2,30.33,North,3,0.0,3.5,100,0.00,BKN,,0.00,WeatherDisplay:10.37,2013-11-21 17:22:00,
2013-11-21 12:24:00,57.4,57.4,30.33,North,355,2.9,3.5,100,0.00,BKN,,0.00,WeatherDisplay:10.37,2013-11-21 17:24:00,
2013-11-21 12:25:00,57.5,57.5,30.33,NE,40,2.0,3.5,100,0.00,BKN,,0.00,WeatherDisplay:10.37,2013-11-21 17:25:00,
2013-11-21 12:27:00,57.7,57.7,30.33,North,355,0.8,3.5,100,0.00,BKN,,0.00,WeatherDisplay:10.37,2013-11-21 17:27:00,
2013-11-21 12:30:00,58.1,58.1,30.33,North,4,3.0,5.8,100,0.00,BKN,,0.00,WeatherDisplay:10.37,2013-11-21 17:30:00,
2013-11-21 12:31:00,58.2,58.2,30.32,NNW,344,2.6,4.6,100,0.00,BKN,,0.00,WeatherDisplay:10.37,2013-11-21 17:31:00,
2013-11-21 12:32:00,58.3,58.3,30.32,NNW,343,0.7,3.5,100,0.00,BKN,,0.00,WeatherDisplay:10.37,2013-11-21 17:32:00,
2013-11-21 12:35:00,58.6,58.6,30.32,NNW,338,0.2,4.0,100,0.00,BKN,,0.00,WeatherDisplay:10.37,2013-11-21 17:35:00,
2013-11-21 12:36:00,58.6,58.6,30.32,WNW,303,3.0,4.6,100,0.00,BKN,,0.00,WeatherDisplay:10.37,2013-11-21 17:36:00,
2013-11-21 12:37:00,58.6,58.6,30.32,NNE,12,3.6,4.6,100,0.00,BKN,,0.00,WeatherDisplay:10.37,2013-11-21 17:37:00,
2013-11-21 12:38:00,58.6,58.6,30.32,NNW,333,3.6,5.0,100,0.00,BKN,,0.00,WeatherDisplay:10.37,2013-11-21 17:38:00,
2013-11-21 12:40:00,58.4,58.4,30.32,NW,326,4.0,5.8,100,0.00,BKN,,0.00,WeatherDisplay:10.37,2013-11-21 17:40:00,
2013-11-21 12:41:00,58.3,58.3,30.32,NNW,346,3.4,5.8,100,0.00,BKN,,0.00,WeatherDisplay:10.37,2013-11-21 17:41:00,
2013-11-21 12:43:00,58.2,58.2,30.32,NW,320,2.4,5.8,100,0.00,BKN,,0.00,WeatherDisplay:10.37,2013-11-21 17:43:00,
2013-11-21 12:44:00,58.2,58.2,30.32,NNW,334,1.7,4.6,100,0.00,BKN,,0.00,WeatherDisplay:10.37,2013-11-21 17:44:00,
2013-11-21 12:45:00,58.0,58.0,30.31,NNW,334,4.3,5.8,100,0.00,BKN,,0.00,WeatherDisplay:10.37,2013-11-21 17:45:00,
2013-11-21 12:46:00,58.0,58.0,30.31,North,351,3.1,5.8,100,0.00,BKN,,0.00,WeatherDisplay:10.37,2013-11-21 17:46:00,
2013-11-21 12:47:00,58.0,58.0,30.31,NNW,337,3.7,4.6,100,0.00,BKN,,0.00,WeatherDisplay:10.37,2013-11-21 17:47:00,
2013-11-21 12:48:00,58.2,58.2,30.32,NNW,329,3.9,5.0,100,0.00,BKN,,0.00,WeatherDisplay:10.37,2013-11-21 17:48:00,
2013-11-21 12:50:00,58.4,58.4,30.32,NW,323,3.7,6.0,100,0.00,BKN,,0.00,WeatherDisplay:10.37,2013-11-21 17:50:00,
2013-11-21 12:51:00,58.5,58.5,30.31,NW,320,3.3,5.8,100,0.00,BKN,,0.00,WeatherDisplay:10.37,2013-11-21 17:51:00,
2013-11-21 12:52:00,58.6,58.6,30.32,NW,319,2.2,4.0,100,0.00,BKN,,0.00,WeatherDisplay:10.37,2013-11-21 17:52:00,
2013-11-21 12:53:00,58.7,58.7,30.31,NW,315,4.8,5.8,100,0.00,BKN,,0.00,WeatherDisplay:10.37,2013-11-21 17:53:00,
2013-11-21 12:55:00,58.7,58.7,30.31,WNW,301,4.6,5.8,100,0.00,BKN,,0.00,WeatherDisplay:10.37,2013-11-21 17:55:00,
2013-11-21 12:56:00,58.8,58.8,30.31,WNW,301,4.5,5.8,100,0.00,BKN,,0.00,WeatherDisplay:10.37,2013-11-21 17:56:00,
2013-11-21 12:57:00,58.9,58.9,30.31,WNW,300,0.5,4.6,100,0.00,BKN,,0.00,WeatherDisplay:10.37,2013-11-21 17:57:00,
2013-11-21 12:58:00,59.0,59.0,30.31,NW,325,2.8,3.5,100,0.00,BKN,,0.00,WeatherDisplay:10.37,2013-11-21 17:58:00,
2013-11-21 13:01:00,59.2,59.2,30.31,NW,315,4.5,6.9,100,0.00,BKN,,0.00,WeatherDisplay:10.37,2013-11-21 18:01:00,
2013-11-21 13:02:00,59.3,59.3,30.31,NW,326,4.9,5.8,100,0.00,BKN,,0.00,WeatherDisplay:10.37,2013-11-21 18:02:00,
2013-11-21 13:03:00,59.4,59.4,30.31,NW,321,0.7,4.6,100,0.00,BKN,,0.00,WeatherDisplay:10.37,2013-11-21 18:03:00,
2013-11-21 13:06:00,59.6,59.6,30.31,NW,324,4.8,6.0,100,0.00,BKN,,0.00,WeatherDisplay:10.37,2013-11-21 18:06:00,
2013-11-21 13:07:00,59.6,59.6,30.31,NNW,342,5.0,6.9,100,0.00,BKN,,0.00,WeatherDisplay:10.37,2013-11-21 18:07:00,
2013-11-21 13:08:00,59.6,59.6,30.31,North,4,2.2,4.6,100,0.00,BKN,,0.00,WeatherDisplay:10.37,2013-11-21 18:08:00,
2013-11-21 13:09:00,59.6,59.6,30.30,NNW,342,2.5,4.6,100,0.00,BKN,,0.00,WeatherDisplay:10.37,2013-11-21 18:09:00,
2013-11-21 13:11:00,59.5,59.5,30.30,North,350,0.7,4.6,100,0.00,BKN,,0.00,WeatherDisplay:10.37,2013-11-21 18:11:00,
2013-11-21 13:12:00,59.6,59.6,30.30,North,352,0.4,2.3,100,0.00,BKN,,0.00,WeatherDisplay:10.37,2013-11-21 18:12:00,
2013-11-21 13:14:00,59.9,59.9,30.30,North,1,0.1,2.3,100,0.00,BKN,,0.00,WeatherDisplay:10.37,2013-11-21 18:14:00,
2013-11-21 13:15:00,59.9,59.9,30.30,North,1,0.0,0.0,100,0.00,BKN,,0.00,WeatherDisplay:10.37,2013-11-21 18:15:00,
2013-11-21 13:16:00,60.0,60.0,30.30,North,1,0.1,1.1,100,0.00,BKN,,0.00,WeatherDisplay:10.37,2013-11-21 18:16:00,
2013-11-21 13:17:00,60.2,60.2,30.30,North,1,0.0,0.0,100,0.00,BKN,,0.00,WeatherDisplay:10.37,2013-11-21 18:17:00,
2013-11-21 13:18:00,60.3,60.3,30.30,North,1,0.0,1.1,100,0.00,BKN,,0.00,WeatherDisplay:10.37,2013-11-21 18:18:00,
2013-11-21 13:19:00,60.7,60.7,30.30,North,1,0.1,0.0,100,0.00,BKN,,0.00,WeatherDisplay:10.37,2013-11-21 18:19:00,
2013-11-21 13:20:00,60.9,60.9,30.30,North,1,0.0,1.1,100,0.00,BKN,,0.00,WeatherDisplay:10.37,2013-11-21 18:20:00,
2013-11-21 13:21:00,60.9,60.9,30.30,North,1,0.0,0.0,100,0.00,BKN,,0.00,WeatherDisplay:10.37,2013-11-21 18:21:00,
2013-11-21 13:22:00,61.0,61.0,30.30,North,1,0.0,0.0,100,0.00,BKN,,0.00,WeatherDisplay:10.37,2013-11-21 18:22:00,
2013-11-21 13:23:00,61.0,61.0,30.30,North,1,0.1,1.1,100,0.00,BKN,,0.00,WeatherDisplay:10.37,2013-11-21 18:23:00,
2013-11-21 13:24:00,61.1,61.1,30.30,North,1,0.0,1.1,100,0.00,BKN,,0.00,WeatherDisplay:10.37,2013-11-21 18:24:00,
2013-11-21 13:25:00,61.1,61.1,30.30,North,1,1.8,2.3,100,0.00,BKN,,0.00,WeatherDisplay:10.37,2013-11-21 18:25:00,
2013-11-21 13:26:00,61.2,61.2,30.30,NE,35,0.3,4.0,100,0.00,BKN,,0.00,WeatherDisplay:10.37,2013-11-21 18:26:00,
2013-11-21 13:27:00,61.3,61.3,30.29,NE,48,3.6,4.6,100,0.00,BKN,,0.00,WeatherDisplay:10.37,2013-11-21 18:27:00,
2013-11-21 13:28:00,61.3,61.3,30.29,NE,36,3.8,4.6,100,0.00,BKN,,0.00,WeatherDisplay:10.37,2013-11-21 18:28:00,
2013-11-21 13:29:00,61.6,61.6,30.30,NE,34,0.1,2.3,100,0.00,BKN,,0.00,WeatherDisplay:10.37,2013-11-21 18:29:00,
2013-11-21 13:30:00,61.6,61.6,30.29,North,0,2.1,2.3,100,0.00,BKN,,0.00,WeatherDisplay:10.37,2013-11-21 18:30:00,
2013-11-21 13:32:00,61.6,61.6,30.29,North,356,0.2,3.5,100,0.00,BKN,,0.00,WeatherDisplay:10.37,2013-11-21 18:32:00,
2013-11-21 13:33:00,61.7,61.7,30.29,North,355,0.0,1.1,100,0.00,BKN,,0.00,WeatherDisplay:10.37,2013-11-21 18:33:00,
2013-11-21 13:35:00,61.6,61.6,30.29,NNW,331,1.2,3.5,100,0.00,BKN,,0.00,WeatherDisplay:10.37,2013-11-21 18:35:00,
2013-11-21 13:37:00,61.7,61.7,30.29,NNW,331,0.0,0.0,100,0.00,BKN,,0.00,WeatherDisplay:10.37,2013-11-21 18:37:00,
2013-11-21 13:38:00,61.7,61.7,30.29,NNW,331,0.0,0.0,100,0.00,BKN,,0.00,WeatherDisplay:10.37,2013-11-21 18:38:00,
2013-11-21 13:39:00,61.7,61.7,30.29,NNW,331,0.0,0.0,100,0.00,BKN,,0.00,WeatherDisplay:10.37,2013-11-21 18:39:00,
2013-11-21 13:41:00,61.5,61.5,30.29,NNW,331,0.0,0.0,100,0.00,BKN,,0.00,WeatherDisplay:10.37,2013-11-21 18:41:00,
2013-11-21 13:42:00,61.5,61.5,30.29,NNW,331,0.0,0.0,100,0.00,BKN,,0.00,WeatherDisplay:10.37,2013-11-21 18:42:00,
2013-11-21 13:43:00,61.4,61.4,30.29,NNW,331,0.0,0.0,100,0.00,BKN,,0.00,WeatherDisplay:10.37,2013-11-21 18:43:00,
2013-11-21 13:44:00,61.4,61.4,30.29,NNW,331,0.0,0.0,100,0.00,BKN,,0.00,WeatherDisplay:10.37,2013-11-21 18:44:00,
2013-11-21 13:46:00,61.3,61.3,30.29,NNW,331,0.0,0.0,100,0.00,BKN,,0.00,WeatherDisplay:10.37,2013-11-21 18:46:00,
2013-11-21 13:47:00,61.2,61.2,30.29,NNW,331,0.0,0.0,100,0.00,BKN,,0.00,WeatherDisplay:10.37,2013-11-21 18:47:00,
2013-11-21 13:48:00,61.1,61.1,30.29,NNW,331,0.0,0.0,100,0.00,BKN,,0.00,WeatherDisplay:10.37,2013-11-21 18:48:00,
2013-11-21 13:49:00,61.1,61.1,30.28,NNW,331,1.7,3.5,100,0.00,BKN,,0.00,WeatherDisplay:10.37,2013-11-21 18:49:00,
2013-11-21 13:50:00,61.1,61.1,30.28,NNW,331,1.9,3.5,100,0.00,BKN,,0.00,WeatherDisplay:10.37,2013-11-21 18:50:00,
2013-11-21 13:51:00,61.1,61.1,30.28,NNW,331,0.2,2.3,100,0.00,BKN,,0.00,WeatherDisplay:10.37,2013-11-21 18:51:00,
2013-11-21 13:52:00,61.1,61.1,30.29,NW,308,0.9,3.5,100,0.00,BKN,,0.00,WeatherDisplay:10.37,2013-11-21 18:52:00,
2013-11-21 13:54:00,61.1,61.1,30.29,WNW,291,2.9,4.6,100,0.00,BKN,,0.00,WeatherDisplay:10.37,2013-11-21 18:54:00,
2013-11-21 13:55:00,61.1,61.1,30.28,WNW,291,2.2,4.6,100,0.00,BKN,,0.00,WeatherDisplay:10.37,2013-11-21 18:55:00,
2013-11-21 13:56:00,61.1,61.1,30.29,West,269,0.3,4.0,100,0.00,BKN,,0.00,WeatherDisplay:10.37,2013-11-21 18:56:00,
2013-11-21 13:57:00,61.1,61.1,30.28,West,260,2.2,3.5,100,0.00,BKN,,0.00,WeatherDisplay:10.37,2013-11-21 18:57:00,
2013-11-21 13:59:00,61.2,61.2,30.28,WSW,249,0.0,3.5,100,0.00,BKN,,0.00,WeatherDisplay:10.37,2013-11-21 18:59:00,
2013-11-21 14:00:00,61.1,61.1,30.28,NW,310,0.0,0.0,100,0.00,BKN,,0.00,WeatherDisplay:10.37,2013-11-21 19:00:00,
2013-11-21 14:01:00,61.1,61.1,30.29,NW,313,0.0,0.0,100,0.00,BKN,,0.00,WeatherDisplay:10.37,2013-11-21 19:01:00,
2013-11-21 14:02:00,61.0,61.0,30.29,NW,314,0.0,0.0,100,0.00,BKN,,0.00,WeatherDisplay:10.37,2013-11-21 19:02:00,
2013-11-21 14:03:00,61.0,61.0,30.29,NW,314,0.1,0.0,100,0.00,BKN,,0.00,WeatherDisplay:10.37,2013-11-21 19:03:00,
2013-11-21 14:04:00,60.9,60.9,30.28,WNW,301,0.2,2.3,100,0.00,BKN,,0.00,WeatherDisplay:10.37,2013-11-21 19:04:00,
2013-11-21 14:05:00,60.9,60.9,30.28,WNW,301,0.0,0.0,100,0.00,BKN,,0.00,WeatherDisplay:10.37,2013-11-21 19:05:00,
2013-11-21 14:06:00,60.9,60.9,30.28,WNW,301,0.0,0.0,100,0.00,BKN,,0.00,WeatherDisplay:10.37,2013-11-21 19:06:00,
2013-11-21 14:07:00,60.8,60.8,30.28,WNW,301,0.0,0.0,100,0.00,BKN,,0.00,WeatherDisplay:10.37,2013-11-21 19:07:00,
2013-11-21 14:08:00,60.9,60.9,30.28,WNW,301,0.0,0.0,100,0.00,BKN,,0.00,WeatherDisplay:10.37,2013-11-21 19:08:00,
2013-11-21 14:09:00,60.9,60.9,30.28,WNW,301,0.0,0.0,100,0.00,BKN,,0.00,WeatherDisplay:10.37,2013-11-21 19:09:00,
2013-11-21 14:10:00,60.9,60.9,30.28,WNW,301,0.0,0.0,100,0.00,BKN,,0.00,WeatherDisplay:10.37,2013-11-21 19:10:00,
2013-11-21 14:11:00,60.9,60.9,30.28,WNW,301,0.0,0.0,100,0.00,BKN,,0.00,WeatherDisplay:10.37,2013-11-21 19:11:00,
2013-11-21 14:13:00,60.9,60.9,30.28,WNW,301,0.0,0.0,100,0.00,BKN,,0.00,WeatherDisplay:10.37,2013-11-21 19:13:00,
2013-11-21 14:14:00,60.8,60.8,30.28,WNW,301,0.0,0.0,100,0.00,BKN,,0.00,WeatherDisplay:10.37,2013-11-21 19:14:00,
2013-11-21 14:16:00,60.9,60.9,30.28,WNW,301,0.0,1.0,100,0.00,BKN,,0.00,WeatherDisplay:10.37,2013-11-21 19:16:00,
2013-11-21 14:18:00,60.9,60.9,30.27,WNW,301,0.0,0.0,100,0.00,BKN,,0.00,WeatherDisplay:10.37,2013-11-21 19:18:00,
2013-11-21 14:19:00,61.0,61.0,30.27,WNW,301,0.0,0.0,100,0.00,BKN,,0.00,WeatherDisplay:10.37,2013-11-21 19:19:00,
2013-11-21 14:21:00,61.3,61.3,30.27,WNW,301,0.0,0.0,100,0.00,BKN,,0.00,WeatherDisplay:10.37,2013-11-21 19:21:00,
2013-11-21 14:22:00,61.3,61.3,30.28,WNW,301,0.0,0.0,100,0.00,BKN,,0.00,WeatherDisplay:10.37,2013-11-21 19:22:00,
2013-11-21 14:23:00,61.5,61.5,30.28,SW,225,0.8,3.5,100,0.00,BKN,,0.00,WeatherDisplay:10.37,2013-11-21 19:23:00,
2013-11-21 14:24:00,61.6,61.6,30.28,WSW,247,1.3,3.5,100,0.00,BKN,,0.00,WeatherDisplay:10.37,2013-11-21 19:24:00,
2013-11-21 14:25:00,61.6,61.6,30.28,WSW,250,1.5,3.5,100,0.00,BKN,,0.00,WeatherDisplay:10.37,2013-11-21 19:25:00,
2013-11-21 14:27:00,61.8,61.8,30.27,WSW,248,1.0,3.5,100,0.00,BKN,,0.00,WeatherDisplay:10.37,2013-11-21 19:27:00,
2013-11-21 14:28:00,61.9,61.9,30.27,SSW,206,0.2,1.1,100,0.00,BKN,,0.00,WeatherDisplay:10.37,2013-11-21 19:28:00,
2013-11-21 14:29:00,62.0,62.0,30.27,SSW,206,0.0,1.1,100,0.00,BKN,,0.00,WeatherDisplay:10.37,2013-11-21 19:29:00,
2013-11-21 14:30:00,62.1,62.1,30.27,SSW,209,0.0,0.0,100,0.00,BKN,,0.00,WeatherDisplay:10.37,2013-11-21 19:30:00,
2013-11-21 14:32:00,62.4,62.4,30.27,SSW,209,0.0,0.0,100,0.00,BKN,,0.00,WeatherDisplay:10.37,2013-11-21 19:32:00,
2013-11-21 14:33:00,62.4,62.4,30.27,SSW,198,0.6,3.0,100,0.00,BKN,,0.00,WeatherDisplay:10.37,2013-11-21 19:33:00,
2013-11-21 14:34:00,62.4,62.4,30.27,SSW,197,0.6,3.5,100,0.00,BKN,,0.00,WeatherDisplay:10.37,2013-11-21 19:34:00,
2013-11-21 14:35:00,62.4,62.4,30.27,SSW,197,0.0,0.0,100,0.00,BKN,,0.00,WeatherDisplay:10.37,2013-11-21 19:35:00,
2013-11-21 14:36:00,62.4,62.4,30.27,SSW,198,0.2,0.0,100,0.00,BKN,,0.00,WeatherDisplay:10.37,2013-11-21 19:36:00,
2013-11-21 14:37:00,62.3,62.3,30.27,SSW,208,0.0,2.3,100,0.00,BKN,,0.00,WeatherDisplay:10.37,2013-11-21 19:37:00,
2013-11-21 14:38:00,62.2,62.2,30.27,SSW,209,0.0,0.0,100,0.00,BKN,,0.00,WeatherDisplay:10.37,2013-11-21 19:38:00,
2013-11-21 14:39:00,62.1,62.1,30.27,SSW,209,0.0,0.0,100,0.00,BKN,,0.00,WeatherDisplay:10.37,2013-11-21 19:39:00,
2013-11-21 14:40:00,61.9,61.9,30.27,SSW,208,0.0,0.0,100,0.00,BKN,,0.00,WeatherDisplay:10.37,2013-11-21 19:40:00,
2013-11-21 14:41:00,61.9,61.9,30.27,SSW,209,0.4,0.0,100,0.00,BKN,,0.00,WeatherDisplay:10.37,2013-11-21 19:41:00,
2013-11-21 14:42:00,61.9,61.9,30.27,SSW,208,0.0,0.0,100,0.00,BKN,,0.00,WeatherDisplay:10.37,2013-11-21 19:42:00,
2013-11-21 14:43:00,61.9,61.9,30.27,SSW,208,0.0,0.0,100,0.00,BKN,,0.00,WeatherDisplay:10.37,2013-11-21 19:43:00,
2013-11-21 14:44:00,62.0,62.0,30.27,SSW,209,0.0,0.0,100,0.00,BKN,,0.00,WeatherDisplay:10.37,2013-11-21 19:44:00,
2013-11-21 14:45:00,62.1,62.1,30.26,SSW,209,0.0,0.0,100,0.00,BKN,,0.00,WeatherDisplay:10.37,2013-11-21 19:45:00,
2013-11-21 14:46:00,62.1,62.1,30.26,SSW,209,0.0,0.0,100,0.00,BKN,,0.00,WeatherDisplay:10.37,2013-11-21 19:46:00,
2013-11-21 14:48:00,62.0,62.0,30.26,SW,221,0.7,2.3,100,0.00,BKN,,0.00,WeatherDisplay:10.37,2013-11-21 19:48:00,
2013-11-21 14:49:00,61.8,61.8,30.27,SW,222,0.3,3.5,100,0.00,BKN,,0.00,WeatherDisplay:10.37,2013-11-21 19:49:00,
2013-11-21 14:51:00,61.7,61.7,30.27,SW,230,3.8,4.6,100,0.00,BKN,,0.00,WeatherDisplay:10.37,2013-11-21 19:51:00,
2013-11-21 14:52:00,61.6,61.6,30.26,SW,229,1.0,4.6,100,0.00,BKN,,0.00,WeatherDisplay:10.37,2013-11-21 19:52:00,
2013-11-21 14:53:00,61.6,61.6,30.26,SW,229,0.9,4.0,100,0.00,BKN,,0.00,WeatherDisplay:10.37,2013-11-21 19:53:00,
2013-11-21 14:54:00,61.6,61.6,30.27,SW,226,2.3,4.6,100,0.00,BKN,,0.00,WeatherDisplay:10.37,2013-11-21 19:54:00,
2013-11-21 14:56:00,61.5,61.5,30.26,SW,226,0.0,0.0,100,0.00,BKN,,0.00,WeatherDisplay:10.37,2013-11-21 19:56:00,
2013-11-21 14:57:00,61.6,61.6,30.27,SW,226,0.0,0.0,100,0.00,BKN,,0.00,WeatherDisplay:10.37,2013-11-21 19:57:00,
2013-11-21 14:58:00,61.5,61.5,30.27,SW,227,0.0,0.0,100,0.00,BKN,,0.00,WeatherDisplay:10.37,2013-11-21 19:58:00,
2013-11-21 14:59:00,61.5,61.5,30.26,SW,227,0.9,1.1,100,0.00,BKN,,0.00,WeatherDisplay:10.37,2013-11-21 19:59:00,
2013-11-21 15:00:00,61.6,61.6,30.27,SW,227,0.9,3.5,100,0.00,BKN,,0.00,WeatherDisplay:10.37,2013-11-21 20:00:00,
2013-11-21 15:01:00,61.6,61.6,30.27,SW,228,0.0,0.0,100,0.00,BKN,,0.00,WeatherDisplay:10.37,2013-11-21 20:01:00,
2013-11-21 15:03:00,61.7,61.7,30.26,SW,228,0.0,0.0,100,0.00,BKN,,0.00,WeatherDisplay:10.37,2013-11-21 20:03:00,
2013-11-21 15:04:00,61.7,61.7,30.26,SW,228,0.0,0.0,100,0.00,BKN,,0.00,WeatherDisplay:10.37,2013-11-21 20:04:00,
2013-11-21 15:05:00,61.8,61.8,30.27,SW,227,0.0,0.0,100,0.00,BKN,,0.00,WeatherDisplay:10.37,2013-11-21 20:05:00,
2013-11-21 15:06:00,61.8,61.8,30.27,SW,228,0.0,0.0,100,0.00,BKN,,0.00,WeatherDisplay:10.37,2013-11-21 20:06:00,
2013-11-21 15:08:00,61.9,61.9,30.26,SW,227,0.0,0.0,100,0.00,BKN,,0.00,WeatherDisplay:10.37,2013-11-21 20:08:00,
2013-11-21 15:09:00,61.9,61.9,30.27,SW,228,0.0,0.0,100,0.00,BKN,,0.00,WeatherDisplay:10.37,2013-11-21 20:09:00,
2013-11-21 15:10:00,61.9,61.9,30.27,SW,228,0.0,0.0,100,0.00,BKN,,0.00,WeatherDisplay:10.37,2013-11-21 20:10:00,
2013-11-21 15:11:00,61.8,61.8,30.26,SW,227,0.0,0.0,100,0.00,BKN,,0.00,WeatherDisplay:10.37,2013-11-21 20:11:00,
2013-11-21 15:14:00,61.8,61.8,30.27,SW,228,0.0,1.1,100,0.00,BKN,,0.00,WeatherDisplay:10.37,2013-11-21 20:14:00,
2013-11-21 15:15:00,61.8,61.8,30.26,SW,228,1.1,3.5,100,0.00,BKN,,0.00,WeatherDisplay:10.37,2013-11-21 20:15:00,
2013-11-21 15:17:00,61.8,61.8,30.26,SW,228,2.4,3.5,100,0.00,BKN,,0.00,WeatherDisplay:10.37,2013-11-21 20:17:00,
2013-11-21 15:19:00,61.7,61.7,30.27,SW,228,0.2,3.5,100,0.00,BKN,,0.00,WeatherDisplay:10.37,2013-11-21 20:19:00,
2013-11-21 15:20:00,61.7,61.7,30.26,SW,231,2.4,3.5,100,0.00,BKN,,0.00,WeatherDisplay:10.37,2013-11-21 20:20:00,
2013-11-21 15:22:00,61.6,61.6,30.27,WNW,287,1.6,3.5,100,0.00,BKN,,0.00,WeatherDisplay:10.37,2013-11-21 20:22:00,
2013-11-21 15:24:00,61.6,61.6,30.26,WNW,287,1.4,3.5,100,0.00,BKN,,0.00,WeatherDisplay:10.37,2013-11-21 20:24:00,
2013-11-21 15:25:00,61.5,61.5,30.27,WNW,287,0.0,2.3,100,0.00,BKN,,0.00,WeatherDisplay:10.37,2013-11-21 20:25:00,
2013-11-21 15:28:00,61.5,61.5,30.27,WSW,242,1.7,3.5,100,0.00,BKN,,0.00,WeatherDisplay:10.37,2013-11-21 20:28:00,
2013-11-21 15:29:00,61.4,61.4,30.27,WSW,242,0.1,2.3,100,0.00,BKN,,0.00,WeatherDisplay:10.37,2013-11-21 20:29:00,
2013-11-21 15:30:00,61.4,61.4,30.27,WSW,244,0.5,2.0,100,0.00,BKN,,0.00,WeatherDisplay:10.37,2013-11-21 20:30:00,
2013-11-21 15:31:00,61.4,61.4,30.27,WSW,244,0.2,2.3,100,0.00,BKN,,0.00,WeatherDisplay:10.37,2013-11-21 20:31:00,
2013-11-21 15:33:00,61.4,61.4,30.27,WSW,239,0.5,3.5,100,0.00,BKN,,0.00,WeatherDisplay:10.37,2013-11-21 20:33:00,
2013-11-21 15:35:00,61.5,61.5,30.27,WSW,239,0.0,0.0,100,0.00,BKN,,0.00,WeatherDisplay:10.37,2013-11-21 20:35:00,
2013-11-21 15:36:00,61.4,61.4,30.27,WSW,239,0.1,1.1,100,0.00,BKN,,0.00,WeatherDisplay:10.37,2013-11-21 20:36:00,
2013-11-21 15:38:00,61.4,61.4,30.27,West,278,2.7,3.5,100,0.00,BKN,,0.00,WeatherDisplay:10.37,2013-11-21 20:38:00,
2013-11-21 15:40:00,61.3,61.3,30.27,West,277,0.6,3.5,100,0.00,BKN,,0.00,WeatherDisplay:10.37,2013-11-21 20:40:00,
2013-11-21 15:41:00,61.3,61.3,30.27,West,278,2.8,3.5,100,0.00,BKN,,0.00,WeatherDisplay:10.37,2013-11-21 20:41:00,
2013-11-21 15:43:00,61.2,61.2,30.27,West,278,0.5,2.3,100,0.00,BKN,,0.00,WeatherDisplay:10.37,2013-11-21 20:43:00,
2013-11-21 15:45:00,61.2,61.2,30.27,West,278,0.0,0.0,100,0.00,BKN,,0.00,WeatherDisplay:10.37,2013-11-21 20:45:00,
2013-11-21 15:46:00,61.2,61.2,30.27,West,278,0.0,0.0,100,0.00,BKN,,0.00,WeatherDisplay:10.37,2013-11-21 20:46:00,
2013-11-21 15:47:00,61.2,61.2,30.27,West,278,0.0,0.0,100,0.00,BKN,,0.00,WeatherDisplay:10.37,2013-11-21 20:47:00,
2013-11-21 15:48:00,61.1,61.1,30.27,WNW,284,0.0,3.0,100,0.00,BKN,,0.00,WeatherDisplay:10.37,2013-11-21 20:48:00,
2013-11-21 15:50:00,61.0,61.0,30.27,WNW,296,0.8,3.5,100,0.00,BKN,,0.00,WeatherDisplay:10.37,2013-11-21 20:50:00,
2013-11-21 15:51:00,61.0,61.0,30.27,WNW,296,0.3,3.5,100,0.00,BKN,,0.00,WeatherDisplay:10.37,2013-11-21 20:51:00,
2013-11-21 15:52:00,60.9,60.9,30.27,WNW,296,0.5,2.3,100,0.00,BKN,,0.00,WeatherDisplay:10.37,2013-11-21 20:52:00,
2013-11-21 15:53:00,60.9,60.9,30.27,WNW,296,0.0,2.3,100,0.00,BKN,,0.00,WeatherDisplay:10.37,2013-11-21 20:53:00,
2013-11-21 15:54:00,60.9,60.9,30.27,WNW,296,0.5,3.0,100,0.00,BKN,,0.00,WeatherDisplay:10.37,2013-11-21 20:54:00,
2013-11-21 15:55:00,60.8,60.8,30.27,WNW,296,0.0,1.1,100,0.00,BKN,,0.00,WeatherDisplay:10.37,2013-11-21 20:55:00,
2013-11-21 15:56:00,60.8,60.8,30.27,WNW,296,0.0,1.1,100,0.00,BKN,,0.00,WeatherDisplay:10.37,2013-11-21 20:56:00,
2013-11-21 15:57:00,60.8,60.8,30.27,WNW,296,0.0,0.0,100,0.00,BKN,,0.00,WeatherDisplay:10.37,2013-11-21 20:57:00,
2013-11-21 15:58:00,60.8,60.8,30.27,WNW,296,0.0,0.0,100,0.00,BKN,,0.00,WeatherDisplay:10.37,2013-11-21 20:58:00,
2013-11-21 15:59:00,60.8,60.8,30.27,WNW,296,0.0,0.0,100,0.00,BKN,,0.00,WeatherDisplay:10.37,2013-11-21 20:59:00,
2013-11-21 16:01:00,60.8,60.8,30.27,WNW,296,0.0,0.0,100,0.00,BKN,,0.00,WeatherDisplay:10.37,2013-11-21 21:01:00,
2013-11-21 16:02:00,60.8,60.8,30.27,WNW,296,0.0,1.1,100,0.00,BKN,,0.00,WeatherDisplay:10.37,2013-11-21 21:02:00,
2013-11-21 16:03:00,60.8,60.8,30.27,WNW,296,0.0,0.0,100,0.00,BKN,,0.00,WeatherDisplay:10.37,2013-11-21 21:03:00,
2013-11-21 16:04:00,60.8,60.8,30.27,WNW,296,0.0,0.0,100,0.00,BKN,,0.00,WeatherDisplay:10.37,2013-11-21 21:04:00,
2013-11-21 16:06:00,60.9,60.9,30.27,WNW,296,2.2,3.5,100,0.00,BKN,,0.00,WeatherDisplay:10.37,2013-11-21 21:06:00,
2013-11-21 16:07:00,60.8,60.8,30.27,WNW,296,0.5,3.5,100,0.00,BKN,,0.00,WeatherDisplay:10.37,2013-11-21 21:07:00,
2013-11-21 16:08:00,60.8,60.8,30.27,WNW,297,0.0,0.0,100,0.00,BKN,,0.00,WeatherDisplay:10.37,2013-11-21 21:08:00,
2013-11-21 16:09:00,60.8,60.8,30.27,WNW,296,0.0,0.0,100,0.00,BKN,,0.00,WeatherDisplay:10.37,2013-11-21 21:09:00,
2013-11-21 16:11:00,60.8,60.8,30.27,WNW,296,0.0,1.1,100,0.00,BKN,,0.00,WeatherDisplay:10.37,2013-11-21 21:11:00,
2013-11-21 16:12:00,60.7,60.7,30.27,WNW,296,0.8,2.0,100,0.00,BKN,,0.00,WeatherDisplay:10.37,2013-11-21 21:12:00,
2013-11-21 16:14:00,60.7,60.7,30.27,WNW,296,0.0,1.1,100,0.00,BKN,,0.00,WeatherDisplay:10.37,2013-11-21 21:14:00,
2013-11-21 16:15:00,60.7,60.7,30.27,WNW,296,0.0,1.1,100,0.00,BKN,,0.00,WeatherDisplay:10.37,2013-11-21 21:15:00,
2013-11-21 16:16:00,60.8,60.8,30.27,WNW,296,0.0,0.0,100,0.00,BKN,,0.00,WeatherDisplay:10.37,2013-11-21 21:16:00,
2013-11-21 16:17:00,60.8,60.8,30.27,WNW,296,0.0,0.0,100,0.00,BKN,,0.00,WeatherDisplay:10.37,2013-11-21 21:17:00,
2013-11-21 16:18:00,60.8,60.8,30.27,WNW,296,0.0,0.0,100,0.00,BKN,,0.00,WeatherDisplay:10.37,2013-11-21 21:18:00,
2013-11-21 16:19:00,60.8,60.8,30.27,WNW,296,0.1,1.1,100,0.00,BKN,,0.00,WeatherDisplay:10.37,2013-11-21 21:19:00,
2013-11-21 16:20:00,60.8,60.8,30.27,WNW,296,0.4,2.0,100,0.00,BKN,,0.00,WeatherDisplay:10.37,2013-11-21 21:20:00,
2013-11-21 16:21:00,60.8,60.8,30.27,WNW,296,0.8,3.5,100,0.00,BKN,,0.00,WeatherDisplay:10.37,2013-11-21 21:21:00,
2013-11-21 16:22:00,60.8,60.8,30.27,WNW,296,0.0,0.0,100,0.00,BKN,,0.00,WeatherDisplay:10.37,2013-11-21 21:22:00,
2013-11-21 16:23:00,60.8,60.8,30.26,WNW,296,0.0,0.0,100,0.00,BKN,,0.00,WeatherDisplay:10.37,2013-11-21 21:23:00,
2013-11-21 16:24:00,60.8,60.8,30.26,WNW,296,0.0,0.0,100,0.00,BKN,,0.00,WeatherDisplay:10.37,2013-11-21 21:24:00,
2013-11-21 16:25:00,60.8,60.8,30.26,WNW,296,0.0,0.0,100,0.00,BKN,,0.00,WeatherDisplay:10.37,2013-11-21 21:25:00,
2013-11-21 16:26:00,60.8,60.8,30.26,WNW,296,0.0,0.0,100,0.00,BKN,,0.00,WeatherDisplay:10.37,2013-11-21 21:26:00,
2013-11-21 16:27:00,60.8,60.8,30.26,WNW,296,0.0,0.0,100,0.00,BKN,,0.00,WeatherDisplay:10.37,2013-11-21 21:27:00,
2013-11-21 16:29:00,60.9,60.9,30.26,WNW,296,0.0,0.0,100,0.00,BKN,,0.00,WeatherDisplay:10.37,2013-11-21 21:29:00,
2013-11-21 16:30:00,60.9,60.9,30.26,WNW,296,0.0,0.0,100,0.00,BKN,,0.00,WeatherDisplay:10.37,2013-11-21 21:30:00,
2013-11-21 16:31:00,60.9,60.9,30.27,WNW,296,0.0,0.0,100,0.00,BKN,,0.00,WeatherDisplay:10.37,2013-11-21 21:31:00,
2013-11-21 16:32:00,60.9,60.9,30.27,WNW,296,0.0,0.0,100,0.00,BKN,,0.00,WeatherDisplay:10.37,2013-11-21 21:32:00,
2013-11-21 16:34:00,60.9,60.9,30.27,WNW,296,0.0,0.0,100,0.00,BKN,,0.00,WeatherDisplay:10.37,2013-11-21 21:34:00,
2013-11-21 16:35:00,60.9,60.9,30.26,WNW,296,0.0,0.0,100,0.00,BKN,,0.00,WeatherDisplay:10.37,2013-11-21 21:35:00,
2013-11-21 16:37:00,60.9,60.9,30.27,WNW,296,0.0,0.0,100,0.00,BKN,,0.00,WeatherDisplay:10.37,2013-11-21 21:37:00,
2013-11-21 16:39:00,60.8,60.8,30.27,WNW,296,0.0,0.0,100,0.00,BKN,,0.00,WeatherDisplay:10.37,2013-11-21 21:39:00,
2013-11-21 16:40:00,60.8,60.8,30.27,WNW,296,0.0,0.0,100,0.00,BKN,,0.00,WeatherDisplay:10.37,2013-11-21 21:40:00,
2013-11-21 16:41:00,60.8,60.8,30.27,WNW,296,0.0,0.0,100,0.00,BKN,,0.00,WeatherDisplay:10.37,2013-11-21 21:41:00,
2013-11-21 16:42:00,60.8,60.8,30.27,WNW,296,0.0,0.0,100,0.00,BKN,,0.00,WeatherDisplay:10.37,2013-11-21 21:42:00,
2013-11-21 16:43:00,60.8,60.8,30.27,WNW,296,0.0,0.0,100,0.00,BKN,,0.00,WeatherDisplay:10.37,2013-11-21 21:43:00,
2013-11-21 16:44:00,60.8,60.8,30.27,WNW,296,0.0,0.0,100,0.00,BKN,,0.00,WeatherDisplay:10.37,2013-11-21 21:44:00,
2013-11-21 16:45:00,60.8,60.8,30.27,WNW,296,0.0,0.0,100,0.00,BKN,,0.00,WeatherDisplay:10.37,2013-11-21 21:45:00,
2013-11-21 16:46:00,60.8,60.8,30.26,WNW,296,0.0,0.0,100,0.00,BKN,,0.00,WeatherDisplay:10.37,2013-11-21 21:46:00,
2013-11-21 16:47:00,60.8,60.8,30.27,WNW,296,0.0,0.0,100,0.00,BKN,,0.00,WeatherDisplay:10.37,2013-11-21 21:47:00,
2013-11-21 16:48:00,60.8,60.8,30.27,WNW,296,0.0,0.0,100,0.00,BKN,,0.00,WeatherDisplay:10.37,2013-11-21 21:48:00,
2013-11-21 16:49:00,60.9,60.9,30.26,WNW,297,0.0,0.0,100,0.00,BKN,,0.00,WeatherDisplay:10.37,2013-11-21 21:49:00,
2013-11-21 16:50:00,60.9,60.9,30.26,WNW,296,0.0,0.0,100,0.00,BKN,,0.00,WeatherDisplay:10.37,2013-11-21 21:50:00,
2013-11-21 16:51:00,60.9,60.9,30.26,WNW,297,0.0,0.0,100,0.00,BKN,,0.00,WeatherDisplay:10.37,2013-11-21 21:51:00,
2013-11-21 16:52:00,60.9,60.9,30.26,WNW,296,0.0,0.0,100,0.00,BKN,,0.00,WeatherDisplay:10.37,2013-11-21 21:52:00,
2013-11-21 16:53:00,60.9,60.9,30.26,WNW,296,0.0,0.0,100,0.00,BKN,,0.00,WeatherDisplay:10.37,2013-11-21 21:53:00,
2013-11-21 16:55:00,60.8,60.8,30.26,WNW,296,0.0,0.0,100,0.00,BKN,,0.00,WeatherDisplay:10.37,2013-11-21 21:55:00,
2013-11-21 16:57:00,60.8,60.8,30.26,WNW,296,0.0,0.0,100,0.00,BKN,,0.00,WeatherDisplay:10.37,2013-11-21 21:57:00,
2013-11-21 16:58:00,60.7,60.7,30.27,WNW,296,0.0,0.0,100,0.00,BKN,,0.00,WeatherDisplay:10.37,2013-11-21 21:58:00,
2013-11-21 16:59:00,60.7,60.7,30.27,WNW,296,0.0,0.0,100,0.00,BKN,,0.00,WeatherDisplay:10.37,2013-11-21 21:59:00,
2013-11-21 17:01:00,60.7,60.7,30.27,WNW,296,0.0,0.0,100,0.00,OVC,,0.00,WeatherDisplay:10.37,2013-11-21 22:01:00,
2013-11-21 17:02:00,60.6,60.6,30.27,WNW,296,0.0,0.0,100,0.00,OVC,,0.00,WeatherDisplay:10.37,2013-11-21 22:02:00,
2013-11-21 17:04:00,60.3,60.3,30.27,WNW,297,0.0,0.0,100,0.00,OVC,,0.00,WeatherDisplay:10.37,2013-11-21 22:04:00,
2013-11-21 17:06:00,60.2,60.2,30.27,WNW,297,0.0,0.0,100,0.00,OVC,,0.00,WeatherDisplay:10.37,2013-11-21 22:06:00,
2013-11-21 17:07:00,60.2,60.2,30.27,WNW,296,0.0,0.0,100,0.00,OVC,,0.00,WeatherDisplay:10.37,2013-11-21 22:07:00,
2013-11-21 17:09:00,60.1,60.1,30.27,WNW,296,0.0,0.0,100,0.00,OVC,,0.00,WeatherDisplay:10.37,2013-11-21 22:09:00,
2013-11-21 17:11:00,60.0,60.0,30.27,WNW,296,0.0,0.0,100,0.00,OVC,,0.00,WeatherDisplay:10.37,2013-11-21 22:11:00,
2013-11-21 17:12:00,59.9,59.9,30.27,WNW,296,0.0,0.0,100,0.00,OVC,,0.00,WeatherDisplay:10.37,2013-11-21 22:12:00,
2013-11-21 17:13:00,59.9,59.9,30.27,WNW,297,0.0,0.0,100,0.00,OVC,,0.00,WeatherDisplay:10.37,2013-11-21 22:13:00,
2013-11-21 17:14:00,59.9,59.9,30.27,WNW,296,0.0,0.0,100,0.00,OVC,,0.00,WeatherDisplay:10.37,2013-11-21 22:14:00,
2013-11-21 17:16:00,59.8,59.8,30.27,WNW,296,0.0,0.0,100,0.00,OVC,,0.00,WeatherDisplay:10.37,2013-11-21 22:16:00,
2013-11-21 17:17:00,59.7,59.7,30.27,WNW,296,0.0,0.0,100,0.00,OVC,,0.00,WeatherDisplay:10.37,2013-11-21 22:17:00,
2013-11-21 17:18:00,59.7,59.7,30.27,WNW,297,0.0,0.0,100,0.00,OVC,,0.00,WeatherDisplay:10.37,2013-11-21 22:18:00,
2013-11-21 17:19:00,59.7,59.7,30.27,WNW,296,0.0,0.0,100,0.00,OVC,,0.00,WeatherDisplay:10.37,2013-11-21 22:19:00,
2013-11-21 17:21:00,59.6,59.6,30.27,WNW,297,0.0,0.0,100,0.00,OVC,,0.00,WeatherDisplay:10.37,2013-11-21 22:21:00,
2013-11-21 17:23:00,59.6,59.6,30.27,WNW,296,0.0,0.0,100,0.00,OVC,,0.00,WeatherDisplay:10.37,2013-11-21 22:23:00,
2013-11-21 17:24:00,59.5,59.5,30.27,WNW,297,0.0,0.0,100,0.00,OVC,,0.00,WeatherDisplay:10.37,2013-11-21 22:24:00,
2013-11-21 17:26:00,59.5,59.5,30.27,WNW,296,0.0,0.0,100,0.00,OVC,,0.00,WeatherDisplay:10.37,2013-11-21 22:26:00,
2013-11-21 17:28:00,59.4,59.4,30.27,WNW,296,0.0,0.0,100,0.00,OVC,,0.00,WeatherDisplay:10.37,2013-11-21 22:28:00,
2013-11-21 17:29:00,59.4,59.4,30.27,WNW,296,0.0,0.0,100,0.00,OVC,,0.00,WeatherDisplay:10.37,2013-11-21 22:29:00,
2013-11-21 17:31:00,59.2,59.2,30.27,WNW,296,0.0,0.0,100,0.00,OVC,,0.00,WeatherDisplay:10.37,2013-11-21 22:31:00,
2013-11-21 17:33:00,58.9,58.9,30.27,WNW,296,0.0,0.0,100,0.00,OVC,,0.00,WeatherDisplay:10.37,2013-11-21 22:33:00,
2013-11-21 17:34:00,58.8,58.8,30.27,WNW,296,0.0,0.0,100,0.00,OVC,,0.00,WeatherDisplay:10.37,2013-11-21 22:34:00,
2013-11-21 17:36:00,58.6,58.6,30.27,WNW,296,0.0,0.0,100,0.00,OVC,,0.00,WeatherDisplay:10.37,2013-11-21 22:36:00,
2013-11-21 17:38:00,58.4,58.4,30.27,WNW,297,0.0,0.0,100,0.00,OVC,,0.00,WeatherDisplay:10.37,2013-11-21 22:38:00,
2013-11-21 17:39:00,58.4,58.4,30.27,WNW,296,0.0,0.0,100,0.00,OVC,,0.00,WeatherDisplay:10.37,2013-11-21 22:39:00,
2013-11-21 17:41:00,58.2,58.2,30.27,WNW,296,0.0,0.0,100,0.00,OVC,,0.00,WeatherDisplay:10.37,2013-11-21 22:41:00,
2013-11-21 17:42:00,58.1,58.1,30.27,WNW,296,0.0,0.0,100,0.00,OVC,,0.00,WeatherDisplay:10.37,2013-11-21 22:42:00,
2013-11-21 17:43:00,57.9,57.9,30.27,WNW,296,0.0,0.0,100,0.00,OVC,,0.00,WeatherDisplay:10.37,2013-11-21 22:43:00,
2013-11-21 17:44:00,57.9,57.9,30.27,WNW,296,0.0,0.0,100,0.00,OVC,,0.00,WeatherDisplay:10.37,2013-11-21 22:44:00,
2013-11-21 17:47:00,57.7,57.7,30.27,WNW,296,0.0,0.0,100,0.00,OVC,,0.00,WeatherDisplay:10.37,2013-11-21 22:47:00,
2013-11-21 17:48:00,57.6,57.6,30.27,WNW,296,0.0,0.0,100,0.00,OVC,,0.00,WeatherDisplay:10.37,2013-11-21 22:48:00,
2013-11-21 17:49:00,57.6,57.6,30.27,WNW,296,0.0,0.0,100,0.00,OVC,,0.00,WeatherDisplay:10.37,2013-11-21 22:49:00,
2013-11-21 17:50:00,57.6,57.6,30.27,WNW,296,0.0,0.0,100,0.00,OVC,,0.00,WeatherDisplay:10.37,2013-11-21 22:50:00,
2013-11-21 17:52:00,57.3,57.3,30.27,WNW,296,0.0,0.0,100,0.00,OVC,,0.00,WeatherDisplay:10.37,2013-11-21 22:52:00,
2013-11-21 17:54:00,57.3,57.3,30.27,WNW,296,0.0,0.0,100,0.00,OVC,,0.00,WeatherDisplay:10.37,2013-11-21 22:54:00,
2013-11-21 17:55:00,57.3,57.3,30.27,WNW,297,0.0,0.0,100,0.00,OVC,,0.00,WeatherDisplay:10.37,2013-11-21 22:55:00,
2013-11-21 17:58:00,57.3,57.3,30.27,WNW,296,0.0,0.0,100,0.00,OVC,,0.00,WeatherDisplay:10.37,2013-11-21 22:58:00,
2013-11-21 17:59:00,57.3,57.3,30.27,WNW,297,0.0,0.0,100,0.00,OVC,,0.00,WeatherDisplay:10.37,2013-11-21 22:59:00,
2013-11-21 18:00:00,57.3,57.3,30.27,WNW,296,0.0,0.0,100,0.00,OVC,,0.00,WeatherDisplay:10.37,2013-11-21 23:00:00,
2013-11-21 18:01:00,57.4,57.4,30.27,WNW,296,0.0,0.0,100,0.00,BKN,,0.00,WeatherDisplay:10.37,2013-11-21 23:01:00,
2013-11-21 18:03:00,57.3,57.3,30.28,WNW,296,0.0,0.0,100,0.00,BKN,,0.00,WeatherDisplay:10.37,2013-11-21 23:03:00,
2013-11-21 18:04:00,57.3,57.3,30.28,WNW,296,0.0,0.0,100,0.00,BKN,,0.00,WeatherDisplay:10.37,2013-11-21 23:04:00,
2013-11-21 18:06:00,57.2,57.2,30.28,WNW,296,0.0,0.0,100,0.00,BKN,,0.00,WeatherDisplay:10.37,2013-11-21 23:06:00,
2013-11-21 18:08:00,57.1,57.1,30.28,WNW,296,0.0,0.0,100,0.00,BKN,,0.00,WeatherDisplay:10.37,2013-11-21 23:08:00,
2013-11-21 18:09:00,57.1,57.1,30.28,WNW,296,0.0,0.0,100,0.00,BKN,,0.00,WeatherDisplay:10.37,2013-11-21 23:09:00,
2013-11-21 18:11:00,57.0,57.0,30.28,WNW,296,0.0,0.0,100,0.00,BKN,,0.00,WeatherDisplay:10.37,2013-11-21 23:11:00,
2013-11-21 18:13:00,57.0,57.0,30.27,WNW,296,0.0,0.0,100,0.00,BKN,,0.00,WeatherDisplay:10.37,2013-11-21 23:13:00,
2013-11-21 18:14:00,57.0,57.0,30.28,WNW,296,0.0,0.0,100,0.00,BKN,,0.00,WeatherDisplay:10.37,2013-11-21 23:14:00,
2013-11-21 18:15:00,57.0,57.0,30.27,WNW,296,0.0,0.0,100,0.00,BKN,,0.00,WeatherDisplay:10.37,2013-11-21 23:15:00,
2013-11-21 18:16:00,57.0,57.0,30.28,WNW,297,0.0,0.0,100,0.00,BKN,,0.00,WeatherDisplay:10.37,2013-11-21 23:16:00,
2013-11-21 18:19:00,56.9,56.9,30.27,WNW,296,0.0,0.0,100,0.00,BKN,,0.00,WeatherDisplay:10.37,2013-11-21 23:19:00,
2013-11-21 18:20:00,56.8,56.8,30.28,WNW,296,0.0,0.0,100,0.00,BKN,,0.00,WeatherDisplay:10.37,2013-11-21 23:20:00,
2013-11-21 18:21:00,56.8,56.8,30.28,WNW,296,0.0,0.0,100,0.00,BKN,,0.00,WeatherDisplay:10.37,2013-11-21 23:21:00,
2013-11-21 18:24:00,56.7,56.7,30.28,WNW,296,0.0,0.0,100,0.00,BKN,,0.00,WeatherDisplay:10.37,2013-11-21 23:24:00,
2013-11-21 18:25:00,56.7,56.7,30.27,WNW,296,0.0,0.0,100,0.00,BKN,,0.00,WeatherDisplay:10.37,2013-11-21 23:25:00,
2013-11-21 18:26:00,56.6,56.6,30.28,WNW,296,0.0,0.0,100,0.00,BKN,,0.00,WeatherDisplay:10.37,2013-11-21 23:26:00,
2013-11-21 18:27:00,56.6,56.6,30.27,WNW,296,0.0,0.0,100,0.00,BKN,,0.00,WeatherDisplay:10.37,2013-11-21 23:27:00,
2013-11-21 18:29:00,56.6,56.6,30.28,WNW,296,0.0,0.0,100,0.00,BKN,,0.00,WeatherDisplay:10.37,2013-11-21 23:29:00,
2013-11-21 18:30:00,56.5,56.5,30.28,WNW,297,0.0,0.0,100,0.00,BKN,,0.00,WeatherDisplay:10.37,2013-11-21 23:30:00,
2013-11-21 18:31:00,56.4,56.4,30.28,WNW,296,0.2,2.0,100,0.00,BKN,,0.00,WeatherDisplay:10.37,2013-11-21 23:31:00,
2013-11-21 18:32:00,56.4,56.4,30.28,WNW,296,0.2,2.3,100,0.00,BKN,,0.00,WeatherDisplay:10.37,2013-11-21 23:32:00,
2013-11-21 18:34:00,55.9,55.9,30.28,WNW,296,0.0,0.0,100,0.00,BKN,,0.00,WeatherDisplay:10.37,2013-11-21 23:34:00,
2013-11-21 18:35:00,55.9,55.9,30.28,WNW,297,0.0,0.0,100,0.00,BKN,,0.00,WeatherDisplay:10.37,2013-11-21 23:35:00,
2013-11-21 18:36:00,55.9,55.9,30.28,WNW,296,0.0,0.0,100,0.00,BKN,,0.00,WeatherDisplay:10.37,2013-11-21 23:36:00,
2013-11-21 18:37:00,55.8,55.8,30.28,WNW,296,0.0,0.0,100,0.00,BKN,,0.00,WeatherDisplay:10.37,2013-11-21 23:37:00,
2013-11-21 18:40:00,55.7,55.7,30.28,WNW,297,0.0,0.0,100,0.00,BKN,,0.00,WeatherDisplay:10.37,2013-11-21 23:40:00,
2013-11-21 18:42:00,55.8,55.8,30.28,WNW,296,0.0,0.0,100,0.00,BKN,,0.00,WeatherDisplay:10.37,2013-11-21 23:42:00,
2013-11-21 18:45:00,55.6,55.6,30.28,WNW,296,0.6,2.3,100,0.00,BKN,,0.00,WeatherDisplay:10.37,2013-11-21 23:45:00,
2013-11-21 18:46:00,55.5,55.5,30.28,WNW,296,0.0,0.0,100,0.00,BKN,,0.00,WeatherDisplay:10.37,2013-11-21 23:46:00,
2013-11-21 18:47:00,55.4,55.4,30.28,WNW,296,0.0,0.0,100,0.00,BKN,,0.00,WeatherDisplay:10.37,2013-11-21 23:47:00,
2013-11-21 18:50:00,55.5,55.5,30.28,WNW,296,0.0,0.0,100,0.00,BKN,,0.00,WeatherDisplay:10.37,2013-11-21 23:50:00,
2013-11-21 18:51:00,55.4,55.4,30.28,WNW,296,0.0,0.0,100,0.00,BKN,,0.00,WeatherDisplay:10.37,2013-11-21 23:51:00,
2013-11-21 18:52:00,55.5,55.5,30.28,WNW,296,0.0,0.0,100,0.00,BKN,,0.00,WeatherDisplay:10.37,2013-11-21 23:52:00,
2013-11-21 18:53:00,55.5,55.5,30.28,WNW,296,0.0,0.0,100,0.00,BKN,,0.00,WeatherDisplay:10.37,2013-11-21 23:53:00,
2013-11-21 18:55:00,55.5,55.5,30.28,WNW,296,0.0,0.0,100,0.00,BKN,,0.00,WeatherDisplay:10.37,2013-11-21 23:55:00,
2013-11-21 18:57:00,55.4,55.4,30.28,WNW,296,0.0,0.0,100,0.00,BKN,,0.00,WeatherDisplay:10.37,2013-11-21 23:57:00,
2013-11-21 18:59:00,55.4,55.4,30.28,WNW,296,0.0,0.0,100,0.00,BKN,,0.00,WeatherDisplay:10.37,2013-11-21 23:59:00,
2013-11-21 19:00:00,55.4,55.4,30.28,WNW,296,0.0,0.0,100,0.00,BKN,,0.00,WeatherDisplay:10.37,2013-11-22 00:00:00,
2013-11-21 19:02:00,55.4,55.4,30.28,WNW,296,0.0,0.0,100,0.00,BKN,,0.00,WeatherDisplay:10.37,2013-11-22 00:02:00,
2013-11-21 19:03:00,55.3,55.3,30.28,WNW,296,0.0,0.0,100,0.00,BKN,,0.00,WeatherDisplay:10.37,2013-11-22 00:03:00,
2013-11-21 19:04:00,55.3,55.3,30.28,WNW,296,0.0,0.0,100,0.00,BKN,,0.00,WeatherDisplay:10.37,2013-11-22 00:04:00,
2013-11-21 19:06:00,55.2,55.2,30.28,WNW,296,0.0,0.0,100,0.00,BKN,,0.00,WeatherDisplay:10.37,2013-11-22 00:06:00,
2013-11-21 19:08:00,55.2,55.2,30.28,WNW,296,0.0,0.0,100,0.00,BKN,,0.00,WeatherDisplay:10.37,2013-11-22 00:08:00,
2013-11-21 19:09:00,55.2,55.2,30.28,WNW,296,0.0,0.0,100,0.00,BKN,,0.00,WeatherDisplay:10.37,2013-11-22 00:09:00,
2013-11-21 19:11:00,55.1,55.1,30.28,WNW,296,0.0,0.0,100,0.00,BKN,,0.00,WeatherDisplay:10.37,2013-11-22 00:11:00,
2013-11-21 19:13:00,55.0,55.0,30.28,WNW,296,0.0,0.0,100,0.00,BKN,,0.00,WeatherDisplay:10.37,2013-11-22 00:13:00,
2013-11-21 19:14:00,55.0,55.0,30.28,WNW,296,0.0,0.0,100,0.00,BKN,,0.00,WeatherDisplay:10.37,2013-11-22 00:14:00,
2013-11-21 19:15:00,55.0,55.0,30.28,WNW,296,0.0,0.0,100,0.00,BKN,,0.00,WeatherDisplay:10.37,2013-11-22 00:15:00,
2013-11-21 19:16:00,55.0,55.0,30.28,WNW,296,0.0,0.0,100,0.00,BKN,,0.00,WeatherDisplay:10.37,2013-11-22 00:16:00,
2013-11-21 19:18:00,54.9,54.9,30.28,WNW,296,0.0,0.0,100,0.00,BKN,,0.00,WeatherDisplay:10.37,2013-11-22 00:18:00,
2013-11-21 19:19:00,54.9,54.9,30.28,WNW,296,0.0,0.0,100,0.00,BKN,,0.00,WeatherDisplay:10.37,2013-11-22 00:19:00,
2013-11-21 19:20:00,54.8,54.8,30.28,WNW,296,0.0,0.0,100,0.00,BKN,,0.00,WeatherDisplay:10.37,2013-11-22 00:20:00,
2013-11-21 19:21:00,54.8,54.8,30.28,WNW,297,0.0,0.0,100,0.00,BKN,,0.00,WeatherDisplay:10.37,2013-11-22 00:21:00,
2013-11-21 19:23:00,54.7,54.7,30.29,WNW,296,0.0,0.0,100,0.00,BKN,,0.00,WeatherDisplay:10.37,2013-11-22 00:23:00,
2013-11-21 19:24:00,54.7,54.7,30.29,WNW,296,0.0,0.0,100,0.00,BKN,,0.00,WeatherDisplay:10.37,2013-11-22 00:24:00,
2013-11-21 19:25:00,54.6,54.6,30.29,WNW,296,0.0,0.0,100,0.00,BKN,,0.00,WeatherDisplay:10.37,2013-11-22 00:25:00,
2013-11-21 19:26:00,54.6,54.6,30.29,WNW,296,0.0,0.0,100,0.00,BKN,,0.00,WeatherDisplay:10.37,2013-11-22 00:26:00,
2013-11-21 19:27:00,54.5,54.5,30.29,WNW,296,0.0,0.0,100,0.00,BKN,,0.00,WeatherDisplay:10.37,2013-11-22 00:27:00,
2013-11-21 19:29:00,54.5,54.5,30.29,WNW,296,0.0,0.0,100,0.00,BKN,,0.00,WeatherDisplay:10.37,2013-11-22 00:29:00,
2013-11-21 19:31:00,54.6,54.6,30.29,WNW,296,0.0,0.0,100,0.00,BKN,,0.00,WeatherDisplay:10.37,2013-11-22 00:31:00,
2013-11-21 19:32:00,54.5,54.5,30.29,WNW,296,0.0,0.0,100,0.00,BKN,,0.00,WeatherDisplay:10.37,2013-11-22 00:32:00,
2013-11-21 19:34:00,54.6,54.6,30.29,WNW,296,0.0,0.0,100,0.00,BKN,,0.00,WeatherDisplay:10.37,2013-11-22 00:34:00,
2013-11-21 19:36:00,54.5,54.5,30.29,WNW,296,0.0,0.0,100,0.00,BKN,,0.00,WeatherDisplay:10.37,2013-11-22 00:36:00,
2013-11-21 19:37:00,54.6,54.6,30.29,WNW,296,0.0,0.0,100,0.00,BKN,,0.00,WeatherDisplay:10.37,2013-11-22 00:37:00,
2013-11-21 19:39:00,54.6,54.6,30.29,WNW,296,0.0,0.0,100,0.00,BKN,,0.00,WeatherDisplay:10.37,2013-11-22 00:39:00,
2013-11-21 19:41:00,54.6,54.6,30.29,WNW,297,0.0,0.0,100,0.00,BKN,,0.00,WeatherDisplay:10.37,2013-11-22 00:41:00,
2013-11-21 19:42:00,54.7,54.7,30.29,WNW,297,0.0,0.0,100,0.00,BKN,,0.00,WeatherDisplay:10.37,2013-11-22 00:42:00,
2013-11-21 19:44:00,54.7,54.7,30.29,WNW,296,0.0,0.0,100,0.00,BKN,,0.00,WeatherDisplay:10.37,2013-11-22 00:44:00,
2013-11-21 19:45:00,54.7,54.7,30.29,WNW,296,0.0,0.0,100,0.00,BKN,,0.00,WeatherDisplay:10.37,2013-11-22 00:45:00,
2013-11-21 19:46:00,54.7,54.7,30.29,WNW,296,0.0,0.0,100,0.00,BKN,,0.00,WeatherDisplay:10.37,2013-11-22 00:46:00,
2013-11-21 19:47:00,54.7,54.7,30.29,WNW,297,0.0,0.0,100,0.00,BKN,,0.00,WeatherDisplay:10.37,2013-11-22 00:47:00,
2013-11-21 19:50:00,54.7,54.7,30.30,WNW,296,0.0,0.0,100,0.00,BKN,,0.00,WeatherDisplay:10.37,2013-11-22 00:50:00,
2013-11-21 19:51:00,54.7,54.7,30.29,WNW,296,0.0,0.0,100,0.00,BKN,,0.00,WeatherDisplay:10.37,2013-11-22 00:51:00,
2013-11-21 19:52:00,54.6,54.6,30.30,WNW,296,0.0,0.0,100,0.00,BKN,,0.00,WeatherDisplay:10.37,2013-11-22 00:52:00,
2013-11-21 19:53:00,54.6,54.6,30.30,WNW,296,0.0,0.0,100,0.00,BKN,,0.00,WeatherDisplay:10.37,2013-11-22 00:53:00,
2013-11-21 19:55:00,54.5,54.5,30.30,WNW,296,0.0,0.0,100,0.00,BKN,,0.00,WeatherDisplay:10.37,2013-11-22 00:55:00,
2013-11-21 19:56:00,54.2,54.2,30.30,WNW,296,0.0,1.1,100,0.00,BKN,,0.00,WeatherDisplay:10.37,2013-11-22 00:56:00,
2013-11-21 19:57:00,54.1,54.1,30.30,WNW,296,0.0,0.0,100,0.00,BKN,,0.00,WeatherDisplay:10.37,2013-11-22 00:57:00,
2013-11-21 19:58:00,54.0,54.0,30.30,WNW,297,0.0,0.0,100,0.00,BKN,,0.00,WeatherDisplay:10.37,2013-11-22 00:58:00,
2013-11-21 20:00:00,54.1,54.1,30.30,WNW,296,0.0,0.0,100,0.00,BKN,,0.00,WeatherDisplay:10.37,2013-11-22 01:00:00,
2013-11-21 20:01:00,54.1,54.1,30.30,WNW,296,0.0,0.0,100,0.00,BKN,,0.00,WeatherDisplay:10.37,2013-11-22 01:01:00,
2013-11-21 20:02:00,54.1,54.1,30.30,WNW,297,0.0,0.0,100,0.00,BKN,,0.00,WeatherDisplay:10.37,2013-11-22 01:02:00,
2013-11-21 20:03:00,54.1,54.1,30.30,WNW,296,0.0,0.0,100,0.00,BKN,,0.00,WeatherDisplay:10.37,2013-11-22 01:03:00,
2013-11-21 20:05:00,54.2,54.2,30.30,WNW,296,0.1,2.3,100,0.00,BKN,,0.00,WeatherDisplay:10.37,2013-11-22 01:05:00,
2013-11-21 20:06:00,54.2,54.2,30.30,WNW,296,0.7,2.3,100,0.00,BKN,,0.00,WeatherDisplay:10.37,2013-11-22 01:06:00,
2013-11-21 20:07:00,54.2,54.2,30.30,WNW,296,0.0,2.3,100,0.00,BKN,,0.00,WeatherDisplay:10.37,2013-11-22 01:07:00,
2013-11-21 20:08:00,54.3,54.3,30.30,WNW,296,0.0,0.0,100,0.00,BKN,,0.00,WeatherDisplay:10.37,2013-11-22 01:08:00,
2013-11-21 20:10:00,54.3,54.3,30.30,WNW,296,0.0,0.0,100,0.00,BKN,,0.00,WeatherDisplay:10.37,2013-11-22 01:10:00,
2013-11-21 20:11:00,54.4,54.4,30.30,WNW,297,0.0,0.0,100,0.00,BKN,,0.00,WeatherDisplay:10.37,2013-11-22 01:11:00,
2013-11-21 20:12:00,54.4,54.4,30.30,WNW,296,0.0,0.0,100,0.00,BKN,,0.00,WeatherDisplay:10.37,2013-11-22 01:12:00,
2013-11-21 20:13:00,54.3,54.3,30.30,WNW,296,0.0,0.0,100,0.00,BKN,,0.00,WeatherDisplay:10.37,2013-11-22 01:13:00,
2013-11-21 20:14:00,54.3,54.3,30.30,WNW,296,0.0,0.0,100,0.00,BKN,,0.00,WeatherDisplay:10.37,2013-11-22 01:14:00,
2013-11-21 20:15:00,54.3,54.3,30.30,WNW,296,0.0,0.0,100,0.00,BKN,,0.00,WeatherDisplay:10.37,2013-11-22 01:15:00,
2013-11-21 20:16:00,54.3,54.3,30.30,WNW,296,0.0,0.0,100,0.00,BKN,,0.00,WeatherDisplay:10.37,2013-11-22 01:16:00,
2013-11-21 20:17:00,54.2,54.2,30.30,WNW,296,0.0,0.0,100,0.00,BKN,,0.00,WeatherDisplay:10.37,2013-11-22 01:17:00,
2013-11-21 20:19:00,54.2,54.2,30.30,WNW,296,0.0,0.0,100,0.00,BKN,,0.00,WeatherDisplay:10.37,2013-11-22 01:19:00,
2013-11-21 20:21:00,54.2,54.2,30.31,WNW,296,0.0,0.0,100,0.00,BKN,,0.00,WeatherDisplay:10.37,2013-11-22 01:21:00,
2013-11-21 20:22:00,54.1,54.1,30.31,WNW,296,0.0,0.0,100,0.00,BKN,,0.00,WeatherDisplay:10.37,2013-11-22 01:22:00,
2013-11-21 20:24:00,54.1,54.1,30.31,WNW,296,0.0,0.0,100,0.00,BKN,,0.00,WeatherDisplay:10.37,2013-11-22 01:24:00,
2013-11-21 20:26:00,54.1,54.1,30.30,WNW,296,0.0,0.0,100,0.00,BKN,,0.00,WeatherDisplay:10.37,2013-11-22 01:26:00,
2013-11-21 20:27:00,54.1,54.1,30.31,WNW,297,0.0,0.0,100,0.00,BKN,,0.00,WeatherDisplay:10.37,2013-11-22 01:27:00,
2013-11-21 20:28:00,54.1,54.1,30.30,WNW,296,0.0,0.0,100,0.00,BKN,,0.00,WeatherDisplay:10.37,2013-11-22 01:28:00,
2013-11-21 20:29:00,54.0,54.0,30.30,WNW,296,0.0,0.0,100,0.00,BKN,,0.00,WeatherDisplay:10.37,2013-11-22 01:29:00,
2013-11-21 20:31:00,53.9,53.9,30.30,WNW,296,0.0,0.0,100,0.00,BKN,,0.00,WeatherDisplay:10.37,2013-11-22 01:31:00,
2013-11-21 20:32:00,53.8,53.8,30.31,WNW,296,0.0,0.0,100,0.00,BKN,,0.00,WeatherDisplay:10.37,2013-11-22 01:32:00,
2013-11-21 20:33:00,53.8,53.8,30.31,WNW,296,0.0,0.0,100,0.00,BKN,,0.00,WeatherDisplay:10.37,2013-11-22 01:33:00,
2013-11-21 20:34:00,53.7,53.7,30.31,WNW,296,0.0,0.0,100,0.00,BKN,,0.00,WeatherDisplay:10.37,2013-11-22 01:34:00,
2013-11-21 20:35:00,53.7,53.7,30.31,WNW,296,0.0,0.0,100,0.00,BKN,,0.00,WeatherDisplay:10.37,2013-11-22 01:35:00,
2013-11-21 20:36:00,53.7,53.7,30.31,WNW,296,0.0,0.0,100,0.00,BKN,,0.00,WeatherDisplay:10.37,2013-11-22 01:36:00,
2013-11-21 20:37:00,53.7,53.7,30.31,WNW,296,0.0,0.0,100,0.00,BKN,,0.00,WeatherDisplay:10.37,2013-11-22 01:37:00,
2013-11-21 20:38:00,53.7,53.7,30.31,WNW,296,0.0,0.0,100,0.00,BKN,,0.00,WeatherDisplay:10.37,2013-11-22 01:38:00,
2013-11-21 20:39:00,53.8,53.8,30.31,WNW,296,0.0,0.0,100,0.00,BKN,,0.00,WeatherDisplay:10.37,2013-11-22 01:39:00,
2013-11-21 20:41:00,53.8,53.8,30.31,WNW,296,0.0,0.0,100,0.00,BKN,,0.00,WeatherDisplay:10.37,2013-11-22 01:41:00,
2013-11-21 20:42:00,53.9,53.9,30.31,WNW,296,0.0,0.0,100,0.00,BKN,,0.00,WeatherDisplay:10.37,2013-11-22 01:42:00,
2013-11-21 20:43:00,53.9,53.9,30.31,WNW,296,0.0,0.0,100,0.00,BKN,,0.00,WeatherDisplay:10.37,2013-11-22 01:43:00,
2013-11-21 20:45:00,53.9,53.9,30.31,WNW,296,0.0,0.0,100,0.00,BKN,,0.00,WeatherDisplay:10.37,2013-11-22 01:45:00,
2013-11-21 20:47:00,53.9,53.9,30.31,WNW,296,0.0,0.0,100,0.00,BKN,,0.00,WeatherDisplay:10.37,2013-11-22 01:47:00,
2013-11-21 20:48:00,53.9,53.9,30.32,WNW,296,0.0,0.0,100,0.00,BKN,,0.00,WeatherDisplay:10.37,2013-11-22 01:48:00,
2013-11-21 20:50:00,53.9,53.9,30.32,WNW,296,0.0,0.0,100,0.00,BKN,,0.00,WeatherDisplay:10.37,2013-11-22 01:50:00,
2013-11-21 20:52:00,53.9,53.9,30.32,WNW,297,0.0,0.0,100,0.00,BKN,,0.00,WeatherDisplay:10.37,2013-11-22 01:52:00,
2013-11-21 20:53:00,54.0,54.0,30.32,WNW,296,0.0,0.0,100,0.00,BKN,,0.00,WeatherDisplay:10.37,2013-11-22 01:53:00,
2013-11-21 20:54:00,54.0,54.0,30.32,WNW,296,0.0,0.0,100,0.00,BKN,,0.00,WeatherDisplay:10.37,2013-11-22 01:54:00,
2013-11-21 20:55:00,54.0,54.0,30.32,WNW,296,0.0,0.0,100,0.00,BKN,,0.00,WeatherDisplay:10.37,2013-11-22 01:55:00,
2013-11-21 20:57:00,54.0,54.0,30.32,WNW,296,0.0,0.0,100,0.00,BKN,,0.00,WeatherDisplay:10.37,2013-11-22 01:57:00,
2013-11-21 20:58:00,54.0,54.0,30.32,WNW,296,0.0,0.0,100,0.00,BKN,,0.00,WeatherDisplay:10.37,2013-11-22 01:58:00,
2013-11-21 20:59:00,54.0,54.0,30.32,WNW,296,0.0,0.0,100,0.00,BKN,,0.00,WeatherDisplay:10.37,2013-11-22 01:59:00,
2013-11-21 21:00:00,54.0,54.0,30.32,WNW,297,0.0,0.0,100,0.00,BKN,,0.00,WeatherDisplay:10.37,2013-11-22 02:00:00,
2013-11-21 21:01:00,54.1,54.1,30.32,WNW,296,0.0,0.0,100,0.00,BKN,,0.00,WeatherDisplay:10.37,2013-11-22 02:01:00,
2013-11-21 21:03:00,54.0,54.0,30.32,WNW,296,0.0,0.0,100,0.00,BKN,,0.00,WeatherDisplay:10.37,2013-11-22 02:03:00,
2013-11-21 21:04:00,54.0,54.0,30.32,WNW,296,0.0,0.0,100,0.00,BKN,,0.00,WeatherDisplay:10.37,2013-11-22 02:04:00,
2013-11-21 21:05:00,54.0,54.0,30.32,WNW,296,0.0,0.0,100,0.00,BKN,,0.00,WeatherDisplay:10.37,2013-11-22 02:05:00,
2013-11-21 21:07:00,54.0,54.0,30.32,WNW,296,0.0,0.0,100,0.00,BKN,,0.00,WeatherDisplay:10.37,2013-11-22 02:07:00,
2013-11-21 21:08:00,54.0,54.0,30.32,WNW,296,0.0,0.0,100,0.00,BKN,,0.00,WeatherDisplay:10.37,2013-11-22 02:08:00,
2013-11-21 21:09:00,54.0,54.0,30.32,WNW,296,0.0,0.0,100,0.00,BKN,,0.00,WeatherDisplay:10.37,2013-11-22 02:09:00,
2013-11-21 21:13:00,54.0,54.0,30.32,WNW,297,0.0,0.0,100,0.00,BKN,,0.00,WeatherDisplay:10.37,2013-11-22 02:13:00,
2013-11-21 21:14:00,54.0,54.0,30.32,WNW,296,0.0,0.0,100,0.00,BKN,,0.00,WeatherDisplay:10.37,2013-11-22 02:14:00,
2013-11-21 21:18:00,54.0,54.0,30.32,WNW,296,0.0,0.0,100,0.00,BKN,,0.00,WeatherDisplay:10.37,2013-11-22 02:18:00,
2013-11-21 21:19:00,54.0,54.0,30.32,WNW,296,0.0,0.0,100,0.00,BKN,,0.00,WeatherDisplay:10.37,2013-11-22 02:19:00,
2013-11-21 21:23:00,54.0,54.0,30.32,WNW,296,0.0,0.0,100,0.00,BKN,,0.00,WeatherDisplay:10.37,2013-11-22 02:23:00,
2013-11-21 21:24:00,54.0,54.0,30.32,WNW,296,0.0,0.0,100,0.00,BKN,,0.00,WeatherDisplay:10.37,2013-11-22 02:24:00,
2013-11-21 21:25:00,54.0,54.0,30.32,WNW,296,0.0,0.0,100,0.00,BKN,,0.00,WeatherDisplay:10.37,2013-11-22 02:25:00,
2013-11-21 21:26:00,54.0,54.0,30.32,WNW,296,0.0,0.0,100,0.00,BKN,,0.00,WeatherDisplay:10.37,2013-11-22 02:26:00,
2013-11-21 21:29:00,53.9,53.9,30.32,WNW,296,0.0,0.0,100,0.00,BKN,,0.00,WeatherDisplay:10.37,2013-11-22 02:29:00,
2013-11-21 21:30:00,53.9,53.9,30.32,WNW,296,0.0,0.0,100,0.00,BKN,,0.00,WeatherDisplay:10.37,2013-11-22 02:30:00,
2013-11-21 21:31:00,53.9,53.9,30.32,WNW,296,0.0,0.0,100,0.00,BKN,,0.00,WeatherDisplay:10.37,2013-11-22 02:31:00,
2013-11-21 21:34:00,54.0,54.0,30.32,WNW,297,0.0,0.0,100,0.00,BKN,,0.00,WeatherDisplay:10.37,2013-11-22 02:34:00,
2013-11-21 21:35:00,54.0,54.0,30.32,WNW,296,0.0,0.0,100,0.00,BKN,,0.00,WeatherDisplay:10.37,2013-11-22 02:35:00,
2013-11-21 21:36:00,54.0,54.0,30.32,WNW,296,0.0,0.0,100,0.00,BKN,,0.00,WeatherDisplay:10.37,2013-11-22 02:36:00,
2013-11-21 21:39:00,54.0,54.0,30.32,WNW,296,0.0,0.0,100,0.00,BKN,,0.00,WeatherDisplay:10.37,2013-11-22 02:39:00,
2013-11-21 21:40:00,54.0,54.0,30.32,WNW,296,0.0,0.0,100,0.00,BKN,,0.00,WeatherDisplay:10.37,2013-11-22 02:40:00,
2013-11-21 21:41:00,54.0,54.0,30.32,WNW,296,0.0,0.0,100,0.00,BKN,,0.00,WeatherDisplay:10.37,2013-11-22 02:41:00,
2013-11-21 21:42:00,54.0,54.0,30.32,WNW,296,0.0,0.0,100,0.00,BKN,,0.00,WeatherDisplay:10.37,2013-11-22 02:42:00,
2013-11-21 21:44:00,54.0,54.0,30.32,WNW,296,0.0,0.0,100,0.00,BKN,,0.00,WeatherDisplay:10.37,2013-11-22 02:44:00,
2013-11-21 21:45:00,54.0,54.0,30.32,WNW,296,0.0,0.0,100,0.00,BKN,,0.00,WeatherDisplay:10.37,2013-11-22 02:45:00,
2013-11-21 21:46:00,53.9,53.9,30.32,WNW,296,0.1,1.1,100,0.00,BKN,,0.00,WeatherDisplay:10.37,2013-11-22 02:46:00,
2013-11-21 21:47:00,53.8,53.8,30.32,WNW,296,0.0,0.0,100,0.00,BKN,,0.00,WeatherDisplay:10.37,2013-11-22 02:47:00,
2013-11-21 21:49:00,53.7,53.7,30.32,WNW,296,0.0,0.0,100,0.00,BKN,,0.00,WeatherDisplay:10.37,2013-11-22 02:49:00,
2013-11-21 21:50:00,53.8,53.8,30.32,WNW,296,0.0,0.0,100,0.00,BKN,,0.00,WeatherDisplay:10.37,2013-11-22 02:50:00,
2013-11-21 21:51:00,53.8,53.8,30.32,WNW,296,0.0,0.0,100,0.00,BKN,,0.00,WeatherDisplay:10.37,2013-11-22 02:51:00,
2013-11-21 21:52:00,53.8,53.8,30.32,WNW,296,0.0,0.0,100,0.00,BKN,,0.00,WeatherDisplay:10.37,2013-11-22 02:52:00,
2013-11-21 21:54:00,53.9,53.9,30.32,WNW,296,0.0,0.0,100,0.00,BKN,,0.00,WeatherDisplay:10.37,2013-11-22 02:54:00,
2013-11-21 21:55:00,53.9,53.9,30.32,WNW,296,0.0,0.0,100,0.00,BKN,,0.00,WeatherDisplay:10.37,2013-11-22 02:55:00,
2013-11-21 21:56:00,53.9,53.9,30.32,WNW,296,0.0,0.0,100,0.00,BKN,,0.00,WeatherDisplay:10.37,2013-11-22 02:56:00,
2013-11-21 21:57:00,53.9,53.9,30.32,WNW,296,0.0,0.0,100,0.00,BKN,,0.00,WeatherDisplay:10.37,2013-11-22 02:57:00,
2013-11-21 21:58:00,54.0,54.0,30.32,WNW,296,0.0,0.0,100,0.00,BKN,,0.00,WeatherDisplay:10.37,2013-11-22 02:58:00,
2013-11-21 22:00:00,54.0,54.0,30.32,WNW,296,0.0,0.0,100,0.00,BKN,,0.00,WeatherDisplay:10.37,2013-11-22 03:00:00,
2013-11-21 22:01:00,54.0,54.0,30.32,WNW,296,0.0,0.0,100,0.00,BKN,,0.00,WeatherDisplay:10.37,2013-11-22 03:01:00,
2013-11-21 22:02:00,54.0,54.0,30.32,WNW,296,0.0,0.0,100,0.00,BKN,,0.00,WeatherDisplay:10.37,2013-11-22 03:02:00,
2013-11-21 22:03:00,54.0,54.0,30.32,WNW,296,0.0,0.0,100,0.00,BKN,,0.00,WeatherDisplay:10.37,2013-11-22 03:03:00,
2013-11-21 22:06:00,54.0,54.0,30.32,WNW,296,0.0,0.0,100,0.00,BKN,,0.00,WeatherDisplay:10.37,2013-11-22 03:06:00,
2013-11-21 22:07:00,54.0,54.0,30.32,WNW,296,0.0,0.0,100,0.00,BKN,,0.00,WeatherDisplay:10.37,2013-11-22 03:07:00,
2013-11-21 22:08:00,54.0,54.0,30.32,WNW,296,0.0,0.0,100,0.00,BKN,,0.00,WeatherDisplay:10.37,2013-11-22 03:08:00,
2013-11-21 22:11:00,53.9,53.9,30.32,WNW,296,0.0,0.0,100,0.00,BKN,,0.00,WeatherDisplay:10.37,2013-11-22 03:11:00,
2013-11-21 22:12:00,53.8,53.8,30.32,WNW,296,0.0,0.0,100,0.00,BKN,,0.00,WeatherDisplay:10.37,2013-11-22 03:12:00,
2013-11-21 22:13:00,53.8,53.8,30.32,WNW,296,0.0,0.0,100,0.00,BKN,,0.00,WeatherDisplay:10.37,2013-11-22 03:13:00,
2013-11-21 22:16:00,53.9,53.9,30.32,WNW,296,0.0,0.0,100,0.00,BKN,,0.00,WeatherDisplay:10.37,2013-11-22 03:16:00,
2013-11-21 22:17:00,53.9,53.9,30.32,WNW,296,0.0,0.0,100,0.00,BKN,,0.00,WeatherDisplay:10.37,2013-11-22 03:17:00,
2013-11-21 22:18:00,53.9,53.9,30.32,WNW,296,0.0,0.0,100,0.00,BKN,,0.00,WeatherDisplay:10.37,2013-11-22 03:18:00,
2013-11-21 22:19:00,53.9,53.9,30.32,WNW,296,0.0,0.0,100,0.00,BKN,,0.00,WeatherDisplay:10.37,2013-11-22 03:19:00,
2013-11-21 22:21:00,54.0,54.0,30.32,WNW,296,0.0,0.0,100,0.00,BKN,,0.00,WeatherDisplay:10.37,2013-11-22 03:21:00,
2013-11-21 22:22:00,54.0,54.0,30.32,WNW,297,0.0,0.0,100,0.00,BKN,,0.00,WeatherDisplay:10.37,2013-11-22 03:22:00,
2013-11-21 22:23:00,54.0,54.0,30.33,WNW,296,0.0,0.0,100,0.00,BKN,,0.00,WeatherDisplay:10.37,2013-11-22 03:23:00,
2013-11-21 22:24:00,54.0,54.0,30.33,WNW,296,0.0,0.0,100,0.00,BKN,,0.00,WeatherDisplay:10.37,2013-11-22 03:24:00,
2013-11-21 22:26:00,54.1,54.1,30.33,WNW,296,0.0,0.0,100,0.00,BKN,,0.00,WeatherDisplay:10.37,2013-11-22 03:26:00,
2013-11-21 22:27:00,54.1,54.1,30.33,WNW,296,0.0,0.0,100,0.00,BKN,,0.00,WeatherDisplay:10.37,2013-11-22 03:27:00,
2013-11-21 22:28:00,54.1,54.1,30.33,WNW,296,0.0,0.0,100,0.00,BKN,,0.00,WeatherDisplay:10.37,2013-11-22 03:28:00,
2013-11-21 22:29:00,54.1,54.1,30.33,WNW,296,0.0,0.0,100,0.00,BKN,,0.00,WeatherDisplay:10.37,2013-11-22 03:29:00,
2013-11-21 22:32:00,54.2,54.2,30.33,WNW,296,0.0,0.0,100,0.00,BKN,,0.00,WeatherDisplay:10.37,2013-11-22 03:32:00,
2013-11-21 22:34:00,54.2,54.2,30.32,WNW,296,0.0,0.0,100,0.00,BKN,,0.00,WeatherDisplay:10.37,2013-11-22 03:34:00,
2013-11-21 22:37:00,54.2,54.2,30.32,WNW,296,0.0,0.0,100,0.00,BKN,,0.00,WeatherDisplay:10.37,2013-11-22 03:37:00,
2013-11-21 22:39:00,54.3,54.3,30.32,WNW,296,0.0,0.0,100,0.00,BKN,,0.00,WeatherDisplay:10.37,2013-11-22 03:39:00,
2013-11-21 22:40:00,54.3,54.3,30.32,WNW,296,0.0,0.0,100,0.00,BKN,,0.00,WeatherDisplay:10.37,2013-11-22 03:40:00,
2013-11-21 22:42:00,54.2,54.2,30.32,WNW,296,0.0,0.0,100,0.00,BKN,,0.00,WeatherDisplay:10.37,2013-11-22 03:42:00,
2013-11-21 22:44:00,54.2,54.2,30.31,WNW,296,0.0,0.0,100,0.00,BKN,,0.00,WeatherDisplay:10.37,2013-11-22 03:44:00,
2013-11-21 22:45:00,54.2,54.2,30.31,WNW,296,0.0,0.0,100,0.00,BKN,,0.00,WeatherDisplay:10.37,2013-11-22 03:45:00,
2013-11-21 22:46:00,54.1,54.1,30.31,WNW,296,0.0,0.0,100,0.00,BKN,,0.00,WeatherDisplay:10.37,2013-11-22 03:46:00,
2013-11-21 22:47:00,54.1,54.1,30.31,WNW,296,0.0,0.0,100,0.00,BKN,,0.00,WeatherDisplay:10.37,2013-11-22 03:47:00,
2013-11-21 22:50:00,54.0,54.0,30.31,WNW,296,0.0,0.0,100,0.00,BKN,,0.00,WeatherDisplay:10.37,2013-11-22 03:50:00,
2013-11-21 22:51:00,53.9,53.9,30.31,WNW,297,0.0,0.0,100,0.00,BKN,,0.00,WeatherDisplay:10.37,2013-11-22 03:51:00,
2013-11-21 22:52:00,53.9,53.9,30.31,WNW,296,0.0,0.0,100,0.00,BKN,,0.00,WeatherDisplay:10.37,2013-11-22 03:52:00,
2013-11-21 22:53:00,53.9,53.9,30.31,WNW,296,0.0,0.0,100,0.00,BKN,,0.00,WeatherDisplay:10.37,2013-11-22 03:53:00,
2013-11-21 22:55:00,53.7,53.7,30.31,WNW,296,1.3,2.3,100,0.00,BKN,,0.00,WeatherDisplay:10.37,2013-11-22 03:55:00,
2013-11-21 22:56:00,53.7,53.7,30.31,WNW,296,0.4,2.3,100,0.00,BKN,,0.00,WeatherDisplay:10.37,2013-11-22 03:56:00,
2013-11-21 22:58:00,53.8,53.8,30.31,WNW,296,0.0,0.0,100,0.00,BKN,,0.00,WeatherDisplay:10.37,2013-11-22 03:58:00,
2013-11-21 23:00:00,53.7,53.7,30.31,WNW,296,0.0,0.0,100,0.00,BKN,,0.00,WeatherDisplay:10.37,2013-11-22 04:00:00,
2013-11-21 23:01:00,53.7,53.7,30.32,WNW,296,0.2,2.3,100,0.00,OVC,,0.00,WeatherDisplay:10.37,2013-11-22 04:01:00,
2013-11-21 23:02:00,53.7,53.7,30.32,WNW,296,0.0,2.3,100,0.00,OVC,,0.00,WeatherDisplay:10.37,2013-11-22 04:02:00,
2013-11-21 23:03:00,53.7,53.7,30.32,WNW,296,0.0,0.0,100,0.00,OVC,,0.00,WeatherDisplay:10.37,2013-11-22 04:03:00,
2013-11-21 23:06:00,53.7,53.7,30.32,WNW,296,0.0,0.0,100,0.00,OVC,,0.00,WeatherDisplay:10.37,2013-11-22 04:06:00,
2013-11-21 23:07:00,53.7,53.7,30.32,WNW,297,2.3,3.5,100,0.00,OVC,,0.00,WeatherDisplay:10.37,2013-11-22 04:07:00,
2013-11-21 23:08:00,53.7,53.7,30.32,WNW,296,2.3,3.5,100,0.00,OVC,,0.00,WeatherDisplay:10.37,2013-11-22 04:08:00,
2013-11-21 23:11:00,53.8,53.8,30.32,WNW,296,0.0,0.0,100,0.00,OVC,,0.00,WeatherDisplay:10.37,2013-11-22 04:11:00,
2013-11-21 23:13:00,53.9,53.9,30.32,WNW,296,0.0,0.0,100,0.00,OVC,,0.00,WeatherDisplay:10.37,2013-11-22 04:13:00,
2013-11-21 23:14:00,53.9,53.9,30.32,WNW,296,0.0,0.0,100,0.00,OVC,,0.00,WeatherDisplay:10.37,2013-11-22 04:14:00,
2013-11-21 23:16:00,54.0,54.0,30.32,WNW,296,0.0,0.0,100,0.00,OVC,,0.00,WeatherDisplay:10.37,2013-11-22 04:16:00,
2013-11-21 23:18:00,54.0,54.0,30.32,WNW,296,0.0,0.0,100,0.00,OVC,,0.00,WeatherDisplay:10.37,2013-11-22 04:18:00,
2013-11-21 23:19:00,54.1,54.1,30.32,WNW,297,0.0,0.0,100,0.00,OVC,,0.00,WeatherDisplay:10.37,2013-11-22 04:19:00,
2013-11-21 23:21:00,54.1,54.1,30.32,WNW,296,0.0,0.0,100,0.00,OVC,,0.00,WeatherDisplay:10.37,2013-11-22 04:21:00,
2013-11-21 23:23:00,54.2,54.2,30.32,WNW,296,0.0,0.0,100,0.00,OVC,,0.00,WeatherDisplay:10.37,2013-11-22 04:23:00,
2013-11-21 23:24:00,54.2,54.2,30.32,WNW,296,0.0,0.0,100,0.00,OVC,,0.00,WeatherDisplay:10.37,2013-11-22 04:24:00,
2013-11-21 23:26:00,54.2,54.2,30.32,WNW,296,0.0,0.0,100,0.00,OVC,,0.00,WeatherDisplay:10.37,2013-11-22 04:26:00,
2013-11-21 23:28:00,54.2,54.2,30.32,WNW,296,0.0,0.0,100,0.00,OVC,,0.00,WeatherDisplay:10.37,2013-11-22 04:28:00,
2013-11-21 23:29:00,54.2,54.2,30.32,WNW,296,0.0,0.0,100,0.00,OVC,,0.00,WeatherDisplay:10.37,2013-11-22 04:29:00,
2013-11-21 23:32:00,54.3,54.3,30.32,WNW,296,0.0,0.0,100,0.00,OVC,,0.00,WeatherDisplay:10.37,2013-11-22 04:32:00,
2013-11-21 23:33:00,54.3,54.3,30.32,WNW,296,0.0,0.0,100,0.00,OVC,,0.00,WeatherDisplay:10.37,2013-11-22 04:33:00,
2013-11-21 23:34:00,54.3,54.3,30.32,WNW,296,0.0,0.0,100,0.00,OVC,,0.00,WeatherDisplay:10.37,2013-11-22 04:34:00,
2013-11-21 23:37:00,54.3,54.3,30.32,WNW,296,0.0,0.0,100,0.00,OVC,,0.00,WeatherDisplay:10.37,2013-11-22 04:37:00,
2013-11-21 23:39:00,54.3,54.3,30.32,WNW,296,0.0,0.0,100,0.00,OVC,,0.00,WeatherDisplay:10.37,2013-11-22 04:39:00,
2013-11-21 23:42:00,54.3,54.3,30.32,WNW,296,0.0,0.0,100,0.00,OVC,,0.00,WeatherDisplay:10.37,2013-11-22 04:42:00,
2013-11-21 23:44:00,54.2,54.2,30.31,WNW,296,0.0,0.0,100,0.00,OVC,,0.00,WeatherDisplay:10.37,2013-11-22 04:44:00,
2013-11-21 23:45:00,54.2,54.2,30.31,WNW,296,0.0,0.0,100,0.00,OVC,,0.00,WeatherDisplay:10.37,2013-11-22 04:45:00,
2013-11-21 23:47:00,54.2,54.2,30.31,WNW,296,0.0,0.0,100,0.00,OVC,,0.00,WeatherDisplay:10.37,2013-11-22 04:47:00,
2013-11-21 23:49:00,54.1,54.1,30.31,WNW,297,0.0,0.0,100,0.00,OVC,,0.00,WeatherDisplay:10.37,2013-11-22 04:49:00,
2013-11-21 23:50:00,54.1,54.1,30.31,WNW,296,0.0,0.0,100,0.00,OVC,,0.00,WeatherDisplay:10.37,2013-11-22 04:50:00,
2013-11-21 23:52:00,54.0,54.0,30.31,WNW,296,0.0,0.0,100,0.00,OVC,,0.00,WeatherDisplay:10.37,2013-11-22 04:52:00,
2013-11-21 23:54:00,53.9,53.9,30.31,WNW,296,0.0,0.0,100,0.00,OVC,,0.00,WeatherDisplay:10.37,2013-11-22 04:54:00,
2013-11-21 23:55:00,53.9,53.9,30.31,WNW,296,0.0,0.0,100,0.00,OVC,,0.00,WeatherDisplay:10.37,2013-11-22 04:55:00,
2013-11-21 23:56:00,53.9,53.9,30.31,WNW,296,0.0,0.0,100,0.00,OVC,,0.00,WeatherDisplay:10.37,2013-11-22 04:56:00,
2013-11-21 23:58:00,53.8,53.8,30.31,WNW,296,0.0,0.0,100,0.00,OVC,,0.00,WeatherDisplay:10.37,2013-11-22 04:58:00,
2013-11-21 23:59:00,53.9,53.9,30.31,WNW,296,0.0,0.0,100,0.00,OVC,,0.00,WeatherDisplay:10.37,2013-11-22 04:59:00,